APDL
Data 28-11-2020

Previsão de Chegada de Navios

Fonte de dados: JUPII - Janela Única Portuária
* Informação em Tempo Real
Data Prevista Chegada Pasta Contramarca Nº Imo Navio Indicativo Chamada Bandeira Comp. GT Local de Atracação Calado Porto Agente Navegação Tipo de Navio
Entrada Saida Origem Destino
2020/11/28 06:00 ESC202002646 002655 9341976 ILHA DA MADEIRA CQAX7 PORTUGAL 129.62 7545.0 TERMINAL DE CONTENTORES NORTE 5.5 6.5 LISBOA CANIÇAL SOFRENA - SOC. AFRET. NAVEGACAO PORTA-CONTENTORES
2020/11/28 07:00 ESC202002612 002618 9376696 MAZARINE 9HA4332 MALTA 195.4 25593.0 Terminal Multiusos de Leixões (Molhe Sul) 7.2 7.2 ROTTERDAM ROTTERDAM DELPHIS PORTUGAL, LDA RO-RO, N.D.
2020/11/28 07:00 ESC202002562 002568 9584475 HEINRICH SCHEPERS 5BVN3 CHIPRE 151.72 10318.0 TERMINAL DE CONTENTORES SUL 7.7 7.7 SETÚBAL FERROL MACANDREWS - NAVEGACAO E TRANSITO, LD PORTA-CONTENTORES
2020/11/28 09:00 ESC202002701 002711 7392907 LIDA V2YF4 ANTIGUA E BARBUDA 62.8 992.0 DOCA 4 NORTE 4.0 4.0 UNKOWN LOCATION UNKOWN LOCATION BURMESTER STUVE CARGA GERAL N.D.
2020/11/28 10:00 VND202000024 002675 8324684 NORDICA HAV V2QT7 ANTIGUA E BARBUDA 82.48 1521.0 VARZEA 3.95 3.95 LYSEKIL UDDEVALLA MARAX - COM. MARITIMO E FLUVIAL CARGA GERAL N.D.
2020/11/28 12:00 ESC202002691 002701 9381275 CORVO CSBH PORTUGAL 119.8 7064.0 DOCA 1 SUL - TCGL 5.0 6.0 SETÚBAL LISBOA NAVEX - EMP. PORT. DE NAVEGACAO CARGA GERAL N.D.
2020/11/28 13:00 ESC202002535 002540 9292943 XPRESS MONTE CERVINO 9HA3980 MALTA 133.6 6454.0 TERMINAL DE CONTENTORES SUL 6.3 7.0 TANGIER VIGO GARLAND NAVEGACAO PORTA-CONTENTORES
2020/11/28 17:00 ESC202002718 002728 8957156 TRUD R OWZP2 DINAMARCA 75.49 1414.0 DOCA 1 NORTE - PASSAGEIROS 2.5 2.5 TYBORØN UNKOWN LOCATION PINTO BASTO IV-SERVICOS MARITIMOS, LDA. DRAGA
2020/11/28 18:00 ESC202002717 002727 9850288 JOSÉ DUARTE CSMQ PORTUGAL 73.0 1111.0 DOCA 1 NORTE - PASSAGEIROS 2.7 2.7 MOHAMMEDIA UNKOWN LOCATION PINTO BASTO IV-SERVICOS MARITIMOS, LDA. DRAGA
2020/11/28 21:00 ESC202002692 002702 9404376 MARIA LAURA ICLE ITALIA 144.05 11836.0 TERMINAL PETROLEIRO - POSTO B 9.0 6.8 SINES SINES WILHELMSEN SHIPS SERVICE PORTUGAL, S.A. NAVIO-TANQUE,N.D.
2020/11/29 01:00 ESC202002319 002324 9242560 AMELIE BORCHARD V2GC4 ANTIGUA E BARBUDA 134.44 9981.0 TERMINAL DE CONTENTORES NORTE 7.2 7.5 LIVERPOOL CASTELLÓN DE LA PLANA MARMEDSA - AGENCIA MARITIMA, LDA PORTA-CONTENTORES
2020/11/29 03:00 ESC202002711 002721 9197442 MARNE V2OV1 ANTIGUA E BARBUDA 86.57 2530.0 DOCA 2 SUL 5.1 3.5 NEWPORT UNKOWN LOCATION NAVEX - EMP. PORT. DE NAVEGACAO CARGA GERAL N.D.
2020/11/29 06:00 ESC202002616 002623 9143972 WEC BRUEGHEL MCXD5 REINO UNIDO 121.35 6362.0 TERMINAL DE CONTENTORES SUL 6.5 6.5 FIGUEIRA DA FOZ SETÚBAL WEC LINES - IBERO PORTUGAL PORTA-CONTENTORES
2020/11/29 16:00 ESC202002620 002628 9315006 ELAN PHCZ PAISES BAIXOS 149.14 11662.0 TERMINAL DE CONTENTORES SUL 8.0 8.0 VIGO LISBOA WEC LINES - IBERO PORTUGAL PORTA-CONTENTORES
2020/11/29 18:00 ESC202002453 002458 8921963 ROAZ CQVY PORTUGAL 82.5 2169.0 DOCA 1 SUL - ÁREA NÃO CONCESSIONADA 5.0 4.1 VIGO SETÚBAL SEALINE - NAVEGAÇÃO E AFRETAMENTOS, LDA GRANELEIRO
2020/11/29 18:00 ESC202002541 002547 9150470 LAGOA D4HK CABO VERDE 100.57 3981.0 TERMINAL DE CONTENTORES NORTE 5.0 6.0 MINDELO LISBOA SOFRENA - SOC. AFRET. NAVEGACAO PORTA-CONTENTORES
2020/11/29 22:00 ESC202002727 002737 9638812 ARKLOW BREEZE PCZP PAISES BAIXOS 119.49 5065.0 DOCA 4 NORTE LA PALLICE UNKOWN LOCATION GARLAND NAVEGACAO CARGA GERAL N.D.
2020/11/30 01:00 ESC202002617 002625 9237371 WEC VERMEER 5BLR3 CHIPRE 134.44 9981.0 TERMINAL DE CONTENTORES SUL 8.2 7.5 ANTWERPEN SETÚBAL WEC LINES - IBERO PORTUGAL PORTA-CONTENTORES
2020/11/30 06:00 ESC202002716 002726 9522738 NAVIN HAWK V7LK6 ILHAS MARSHALL 112.8 5087.0 DOCA 2 SUL 6.3 4.25 GDANSK UNKOWN LOCATION NAVEX - EMP. PORT. DE NAVEGACAO GRANELEIRO
2020/11/30 06:00 ESC202002550 002556 9289063 PINARA A8RF9 LIBERIA 175.59 18334.0 TERMINAL DE CONTENTORES SUL 8.8 ALGECIRAS SETÚBAL CMA CGM PORTUGAL PORTA-CONTENTORES
2020/11/30 06:00 ESC202002537 002542 9231133 MARIA LUISA V2GY8 ANTIGUA E BARBUDA 192.9 23132.0 TERMINAL DE CONTENTORES SUL LISBOA LISBOA NAIP - NAVEGAÇÃO, AGÊNCIA INTERNACIONAL PORTUGUESA CARGA GERAL N.D.
2020/11/30 07:00 ESC202002674 002684 9376713 VESPERTINE 9HA4331 MALTA 195.4 25593.0 Terminal Multiusos de Leixões (Molhe Sul) ROTTERDAM ZEEBRUGGE DELPHIS PORTUGAL, LDA RO-RO, N.D.
2020/11/30 11:00 ESC202002725 002735 9537642 CETO 9HA5302 MALTA 121.62 4364.0 TERMINAL PETROLEIRO - POSTO B 6.95 6.85 ROTTERDAM GEBZE ATLANTIC LUSOFRETE - AFRET.TRANSPORTES E NAVEG. SA N/T PRODUT.QUIMICOS
2020/11/30 12:00 ESC202002603 002610 9248851 AITA MARI EBXC ESPANHA 32.0 184.0 DOCA 1 NORTE - PASSAGEIROS 3.0 3.0 PASAJES CADIZ BURMESTER STUVE NAVIOS,N.D.
2020/11/30 13:00 ESC202002636 002645 9504073 WES JANINE 5BLW4 CHIPRE 151.72 10685.0 TERMINAL DE CONTENTORES NORTE ROTTERDAM LISBOA One Shipping, Unipessoal Lda PORTA-CONTENTORES
2020/11/30 17:00 ESC202002730 002740 6729438 COMANDANTE AGUAS CSMD PORTUGAL 25.36 115.38 DOCA 2 NORTE 3.0 3.0 FIGUEIRA DA FOZ VIANA DO CASTELO BURMESTER STUVE REBOCADOR
2020/11/30 22:00 ESC202002583 002589 9162667 LEONIE P V2OP5 ANTIGUA E BARBUDA 139.03 9991.0 TERMINAL DE CONTENTORES SUL 7.5 8.9 ALGECIRAS LISBOA PMAR - Navegação, Lda PORTA-CONTENTORES
2020/12/01 06:00 ESC202002557 002563 9246566 WEC VAN GOGH C4TK2 CHIPRE 134.44 9962.0 TERMINAL DE CONTENTORES SUL 8.0 8.0 VIGO ROTTERDAM WEC LINES - IBERO PORTUGAL PORTA-CONTENTORES
2020/12/01 06:00 ESC202002719 002729 9320805 AMUESA CQOC PORTUGAL 89.5 2945.0 DOCA 2 NORTE 6.5 4.0 BORDEAUX UNKOWN LOCATION NAVEX - EMP. PORT. DE NAVEGACAO CARGA GERAL N.D.
2020/12/01 07:00 ESC202002563 002569 9483358 CONMAR AVENUE V2GD2 ANTIGUA E BARBUDA 151.72 10585.0 TERMINAL DE CONTENTORES SUL 6.5 6.5 SETÚBAL FERROL MACANDREWS - NAVEGACAO E TRANSITO, LD PORTA-CONTENTORES
2020/12/01 20:00 ESC202002481 002487 9162631 MSC ASLI D5PF2 LIBERIA 217.01 24836.0 TERMINAL DE CONTENTORES SUL SINES GIJÓN MEDITERRANEAN SHIPPING CO. PORTA-CONTENTORES
2020/12/02 06:00 ESC202002622 002630 9365984 WEC VAN EYCK 5BPQ5 CHIPRE 141.6 7702.0 TERMINAL DE CONTENTORES SUL 8.0 8.0 SETÚBAL LIVERPOOL WEC LINES - IBERO PORTUGAL PORTA-CONTENTORES
2020/12/02 07:00 ESC202002642 002651 9255775 ENCOUNTER PHA0 PAISES BAIXOS 133.9 7642.0 TERMINAL DE CONTENTORES SUL 6.5 6.5 DUBLIN SETÚBAL MACANDREWS - NAVEGACAO E TRANSITO, LD PORTA-CONTENTORES
2020/12/02 07:00 ESC202002675 002685 9209453 CATHERINE 9HA4113 MALTA 182.2 21287.0 Terminal Multiusos de Leixões (Molhe Sul) ROTTERDAM ZEEBRUGGE DELPHIS PORTUGAL, LDA RO-RO, N.D.
2020/12/02 07:00 ESC202002723 002733 9496587 WILSON DUNDALK V2HC7 ANTIGUA E BARBUDA 87.9 2452.0 DOCA 1 SUL - ÁREA NÃO CONCESSIONADA RIDHAM DOCK UNKOWN LOCATION I.C.C.-AG.NAV.TRANSP.TERRESTRE CARGA GERAL N.D.
2020/12/02 08:00 ESC202002669 002679 9338967 EM HYDRA A8XP7 LIBERIA 175.5 18334.0 TERMINAL DE CONTENTORES SUL ALGECIRAS HUELVA MAERSK PORTUGAL - AGENTES TRANSPORTES INTERN PORTA-CONTENTORES
2020/12/03 00:00 ESC202002584 002590 9412531 ELBSKY V2EV8 ANTIGUA E BARBUDA 157.71 11550.0 TERMINAL DE CONTENTORES SUL 6.5 6.5 LISBOA ROTTERDAM NAVEX - EMP. PORT. DE NAVEGACAO PORTA-CONTENTORES
2020/12/03 06:00 ESC202002712 002722 9148192 FRI SKIEN 5BFF4 CHIPRE 89.25 2780.0 DOCA 4 NORTE 5.3 5.3 KLAIPEDA UNKOWN LOCATION PORTMAR C.GERAL,SINGLE-DECKER
2020/12/03 06:00 ESC202002621 002629 9315006 ELAN PHCZ PAISES BAIXOS 149.14 11662.0 TERMINAL DE CONTENTORES SUL 8.0 8.0 SETÚBAL TILBURY WEC LINES - IBERO PORTUGAL PORTA-CONTENTORES
2020/12/03 06:00 ESC202002353 002357 9430870 HANSA NEUBURG D5KB8 LIBERIA 175.46 18326.0 TERMINAL DE CONTENTORES SUL 8.7 8.9 DUNKERQUE LISBOA HAPAG-LLOYD PORTUGAL PORTA-CONTENTORES
2020/12/03 06:00 ESC202002618 002626 9237371 WEC VERMEER 5BLR3 CHIPRE 134.44 9981.0 TERMINAL DE CONTENTORES SUL 8.0 8.0 SINES VIGO WEC LINES - IBERO PORTUGAL PORTA-CONTENTORES
2020/12/03 07:00 ESC202002643 002652 9483334 ELBWIND 5BNL5 CHIPRE 151.73 10585.0 TERMINAL DE CONTENTORES SUL 6.5 6.5 ROTTERDAM FERROL MACANDREWS - NAVEGACAO E TRANSITO, LD PORTA-CONTENTORES
2020/12/03 07:00 ESC202002688 002698 9123788 MONTE DA GUIA CSDB PORTUGAL 126.25 7039.0 TERMINAL DE CONTENTORES NORTE 6.5 6.5 LISBOA PONTA DELGADA SOFRENA - SOC. AFRET. NAVEGACAO MISTO C.GERAL/CONTEN.
2020/12/03 15:00 ESC202002720 002730 9124419 WILSON BLYTH 9HQP4 MALTA 87.9 2446.0 DOCA 2 NORTE 4.5 5.0 SETÚBAL NORRKÖPING NAVEX - EMP. PORT. DE NAVEGACAO CARGA GERAL N.D.
2020/12/03 17:00 ESC202002519 002524 9388390 FUNCHALENSE 5 CSKN PORTUGAL 127.0 7580.0 TERMINAL DE CONTENTORES NORTE 6.0 6.0 CANIÇAL LISBOA PMAR - Navegação, Lda PORTA-CONTENTORES
2020/12/03 18:00 ESC202002682 002692 8338049 VIKING OSFRID P-256-AL CSZA8 PORTUGAL 79.85 1650.0 TERMINAL DE CRUZEIROS 1.75 1.75 PORTO VIANA DO CASTELO PINTO BASTO IV-SERVICOS MARITIMOS, LDA. PASSAGEIROS
2020/12/03 18:00 ESC202002678 002688 P278AL VIKING HELGRIM NA PORTUGAL 79.98 1650.0 TERMINAL DE CRUZEIROS 1.75 1.75 PORTO VIANA DO CASTELO PINTO BASTO IV-SERVICOS MARITIMOS, LDA. PASSAGEIROS
2020/12/04 06:06 ESC202002641 002650 9491496 ESSENCE PBNL PAISES BAIXOS 168.13 17368.0 TERMINAL DE CONTENTORES SUL ZEEBRUGGE VIGO GARLAND NAVEGACAO PORTA-CONTENTORES
2020/12/04 07:00 ESC202002644 002653 9461594 STEFAN SIBUM 5BQX3 CHIPRE 151.74 10585.0 TERMINAL DE CONTENTORES SUL 6.5 6.5 VIGO SETÚBAL MACANDREWS - NAVEGACAO E TRANSITO, LD PORTA-CONTENTORES
2020/12/04 07:00 ESC202002724 002734 9523964 KATE C 2DCL7 REINO UNIDO 106.07 4151.0 DOCA 4 NORTE SEVILLA UNKOWN LOCATION I.C.C.-AG.NAV.TRANSP.TERRESTRE CARGA GERAL N.D.
2020/12/04 12:00 ESC202002698 002708 9125384 CLEMENTINE ONDK BELGICA 162.49 23986.0 Terminal Multiusos de Leixões (Molhe Sul) DUBLIN SANTANDER DELPHIS PORTUGAL, LDA RO-RO, N.D.
2020/12/05 05:00 ESC202002699 002709 9246530 KATHERINE BORCHARD V2BW7 ANTIGUA E BARBUDA 134.44 9962.0 TERMINAL DE CONTENTORES NORTE 7.0 7.0 CASTELLÓN DE LA PLANA DUBLIN MARMEDSA - AGENCIA MARITIMA, LDA PORTA-CONTENTORES
2020/12/05 05:00 ESC202002700 002710 9242558 NAAMA BORCHARD V2AR8 ANTIGUA E BARBUDA 134.44 9981.0 TERMINAL DE CONTENTORES NORTE 7.0 7.0 LIVERPOOL CASTELLÓN DE LA PLANA MARMEDSA - AGENCIA MARITIMA, LDA PORTA-CONTENTORES
2020/12/05 06:00 ESC202002696 002706 9143972 WEC BRUEGHEL MCXD5 REINO UNIDO 121.35 6362.0 TERMINAL DE CONTENTORES SUL 6.5 6.5 FIGUEIRA DA FOZ SETÚBAL WEC LINES - IBERO PORTUGAL PORTA-CONTENTORES
2020/12/05 06:00 ESC202002668 002678 9353723 LOLA B CQAS3 PORTUGAL 154.85 8971.0 TERMINAL DE CONTENTORES NORTE 7.0 7.0 VILLAGARCÍA (DE AROUSA) SETÚBAL PORTMAR PORTA-CONTENTORES
2020/12/05 06:00 ESC202002689 002699 9341976 ILHA DA MADEIRA CQAX7 PORTUGAL 129.62 7545.0 TERMINAL DE CONTENTORES NORTE 6.5 6.5 LISBOA CANIÇAL SOFRENA - SOC. AFRET. NAVEGACAO PORTA-CONTENTORES
2020/12/05 06:00 ESC202002403 002408 9312212 ENSEMBLE PHES PAISES BAIXOS 134.6 7642.0 TERMINAL DE CONTENTORES SUL 6.5 6.5 SETÚBAL LIVERPOOL MACANDREWS - NAVEGACAO E TRANSITO, LD PORTA-CONTENTORES
2020/12/05 06:00 ESC202002531 002536 9483695 NORDICA PCSK PAISES BAIXOS 151.72 10318.0 TERMINAL DE CONTENTORES SUL LISBOA ROTTERDAM GARLAND NAVEGACAO PORTA-CONTENTORES
2020/12/05 07:00 ESC202002729 002739 9125671 CELTIC VOYAGER MDZU7 REINO UNIDO 89.9 2805.0 DOCA 1 SUL - ÁREA NÃO CONCESSIONADA 5.5 4.0 BASSENS UNKOWN LOCATION I.C.C.-AG.NAV.TRANSP.TERRESTRE CARGA GERAL N.D.
2020/12/05 07:00 ESC202002676 002686 9376696 MAZARINE 9HA4332 MALTA 195.4 25593.0 Terminal Multiusos de Leixões (Molhe Sul) ROTTERDAM ROTTERDAM DELPHIS PORTUGAL, LDA RO-RO, N.D.
2020/12/06 06:00 ESC202002690 002700 9315018 ELITE PHDA PAISES BAIXOS 149.14 11662.0 TERMINAL DE CONTENTORES SUL 8.0 8.0 VIGO LISBOA WEC LINES - IBERO PORTUGAL PORTA-CONTENTORES
2020/12/06 06:00 ESC202002637 002646 9504061 WES GESA 5BKD4 CHIPRE 151.72 10585.0 TERMINAL DE CONTENTORES NORTE ROTTERDAM LISBOA One Shipping, Unipessoal Lda PORTA-CONTENTORES
2020/12/06 07:00 ESC202002728 002738 9434577 ANMIRO V2DR9 ANTIGUA E BARBUDA 87.97 2461.0 DOCA 1 SUL - ÁREA NÃO CONCESSIONADA 5.5 4.0 RIDHAM DOCK UNKOWN LOCATION I.C.C.-AG.NAV.TRANSP.TERRESTRE CARGA GERAL N.D.
2020/12/06 07:00 ESC202002659 002668 9385532 DIANE A TCRP3 TURQUIA 184.0 17687.0 TERMINAL DE CONTENTORES SUL 7.6 7.6 ALGECIRAS LISBOA PMAR - Navegação, Lda PORTA-CONTENTORES
2020/12/07 06:00 ESC202002694 002704 9246566 WEC VAN GOGH C4TK2 CHIPRE 134.44 9962.0 TERMINAL DE CONTENTORES SUL 8.0 8.0 ANTWERPEN SETÚBAL WEC LINES - IBERO PORTUGAL PORTA-CONTENTORES
2020/12/07 07:00 ESC202002654 002663 9584475 HEINRICH SCHEPERS 5BVN3 CHIPRE 151.72 10318.0 TERMINAL DE CONTENTORES SUL 6.5 6.5 SETÚBAL FERROL MACANDREWS - NAVEGACAO E TRANSITO, LD PORTA-CONTENTORES
2020/12/07 19:00 ESC202002536 002541 9328651 X-PRESS VESUVIO 9HA3961 MALTA 133.6 6454.0 TERMINAL DE CONTENTORES SUL VIGO LISBOA GARLAND NAVEGACAO PORTA-CONTENTORES
2020/12/08 12:00 ESC202002540 002546 9163192 MSC UMA CQIV8 PORTUGAL 194.06 23722.0 TERMINAL DE CONTENTORES SUL SINES GIJÓN MEDITERRANEAN SHIPPING CO. PORTA-CONTENTORES
2020/12/09 06:00 ESC202002693 002703 9315018 ELITE PHDA PAISES BAIXOS 149.14 11662.0 TERMINAL DE CONTENTORES SUL 8.0 8.0 SETÚBAL TILBURY WEC LINES - IBERO PORTUGAL PORTA-CONTENTORES
2020/12/09 06:00 ESC202002649 002658 9516789 AS SELINA D5BG4 LIBERIA 175.47 18358.0 TERMINAL DE CONTENTORES SUL 9.6 9.6 TANGER MED ANTWERPEN HAPAG-LLOYD PORTUGAL PORTA-CONTENTORES
2020/12/09 08:00 ESC202002670 002680 9338967 EM HYDRA A8XP7 LIBERIA 175.5 18334.0 TERMINAL DE CONTENTORES SUL ALGECIRAS HUELVA MAERSK PORTUGAL - AGENTES TRANSPORTES INTERN PORTA-CONTENTORES
2020/12/10 06:00 ESC202002697 002707 9365984 WEC VAN EYCK 5BPQ5 CHIPRE 141.6 7702.0 TERMINAL DE CONTENTORES SUL 8.0 8.0 SETÚBAL LIVERPOOL WEC LINES - IBERO PORTUGAL PORTA-CONTENTORES
2020/12/10 06:00 ESC202002695 002705 9246566 WEC VAN GOGH C4TK2 CHIPRE 134.44 9962.0 TERMINAL DE CONTENTORES SUL 8.0 8.0 SINES VIGO WEC LINES - IBERO PORTUGAL PORTA-CONTENTORES
2020/12/10 07:00 ESC202002598 002604 9465435 BRIGHT SKY V7ZQ6 ILHAS MARSHALL 199.8 30469.0 DOCA 4 NORTE 11.0 11.0 ANTWERPEN WALVIS BAY MCPAS - AGÊNCIA DE NAVEGAÇÃO, S.A. CARGA GERAL N.D.
2020/12/10 17:00 ESC202002520 002525 9388390 FUNCHALENSE 5 CSKN PORTUGAL 127.0 7580.0 TERMINAL DE CONTENTORES NORTE 6.0 6.0 CANIÇAL LISBOA PMAR - Navegação, Lda PORTA-CONTENTORES
2020/12/11 06:00 ESC202002708 002718 9301201 MASTERY D A8ZB5 LIBERIA 154.85 8971.0 TERMINAL DE CONTENTORES SUL 7.0 7.0 LISBOA TILBURY MARMEDSA - AGENCIA MARITIMA, LDA PORTA-CONTENTORES
2020/12/11 07:00 ESC202002647 002656 9483358 CONMAR AVENUE V2GD2 ANTIGUA E BARBUDA 151.72 10585.0 TERMINAL DE CONTENTORES SUL 6.5 6.5 DUBLIN SETÚBAL MACANDREWS - NAVEGACAO E TRANSITO, LD PORTA-CONTENTORES
2020/12/11 07:00 ESC202002655 002664 9461594 STEFAN SIBUM 5BQX3 CHIPRE 151.74 10585.0 TERMINAL DE CONTENTORES SUL 6.5 6.5 VIGO SETÚBAL MACANDREWS - NAVEGACAO E TRANSITO, LD PORTA-CONTENTORES
2020/12/11 14:00 ESC202002665 002674 9306067 CALISTO A8HF6 LIBERIA 167.98 15487.0 TERMINAL DE CONTENTORES SUL LISBOA ROTTERDAM GARLAND NAVEGACAO PORTA-CONTENTORES
2020/12/11 22:00 ESC202002715 002725 9276341 X-PRESS MONTE BIANCO 9HA3446 MALTA 133.58 6434.0 TERMINAL DE CONTENTORES SUL VIGO LISBOA GARLAND NAVEGACAO PORTA-CONTENTORES
2020/12/12 05:00 ESC202002702 002712 9354428 SARA BORCHARD CQEJ PORTUGAL 134.44 9962.0 TERMINAL DE CONTENTORES NORTE 7.0 7.0 CASTELLÓN DE LA PLANA DUBLIN MARMEDSA - AGENCIA MARITIMA, LDA PORTA-CONTENTORES
2020/12/12 06:00 ESC202002703 002713 9246530 KATHERINE BORCHARD V2BW7 ANTIGUA E BARBUDA 134.44 9962.0 TERMINAL DE CONTENTORES NORTE 7.0 7.0 LIVERPOOL CASTELLÓN DE LA PLANA MARMEDSA - AGENCIA MARITIMA, LDA PORTA-CONTENTORES
2020/12/12 06:00 ESC202002731 002741 9246580 GRANDE NIGERIA IBRF ITALIA 213.88 56738.0 TERMINAL DE CONTENTORES NORTE LE HAVRE DAKAR GRIMALDI PORTUGAL LDA RO-RO CONTENTORES
2020/12/12 06:00 ESC202002714 002724 9584487 HELENA SCHEPERS 5BVP3 CHIPRE 151.72 10318.0 TERMINAL DE CONTENTORES NORTE ROTTERDAM LISBOA One Shipping, Unipessoal Lda PORTA-CONTENTORES
2020/12/12 07:00 ESC202002656 002665 9287792 NEUBURG CQAZ8 PORTUGAL 140.56 7852.0 TERMINAL DE CONTENTORES SUL 6.5 6.5 SETÚBAL LIVERPOOL MACANDREWS - NAVEGACAO E TRANSITO, LD PORTA-CONTENTORES
2020/12/13 07:00 ESC202002657 002666 9312212 ENSEMBLE PHES PAISES BAIXOS 134.6 7642.0 TERMINAL DE CONTENTORES SUL 6.5 6.5 DUBLIN SETÚBAL MACANDREWS - NAVEGACAO E TRANSITO, LD PORTA-CONTENTORES
2020/12/13 21:00 ESC202002168 002173 9513658 BBC LONDON V2FJ2 ANTIGUA E BARBUDA 130.19 7138.0 DOCA 2 SUL 6.5 4.0 SAINT PETERSBURG (EX LENINGRAD) UNKOWN LOCATION NAVEX - EMP. PORT. DE NAVEGACAO CARGA GERAL N.D.
2020/12/14 07:00 ESC202002683 002693 9255775 ENCOUNTER PHA0 PAISES BAIXOS 133.9 7642.0 TERMINAL DE CONTENTORES SUL 6.5 6.5 DUBLIN SETÚBAL MACANDREWS - NAVEGACAO E TRANSITO, LD PORTA-CONTENTORES
2020/12/15 07:00 ESC202002713 002723 9271925 WLADISLAW ORKAN 9HA4539 MALTA 199.8 24167.0 DOCA 2 NORTE 9.0 9.0 BREMEN CAMRANH BURMESTER STUVE MISTO C.GERAL/CONTEN.
2020/12/16 08:00 ESC202002671 002681 9338967 EM HYDRA A8XP7 LIBERIA 175.5 18334.0 TERMINAL DE CONTENTORES SUL ALGECIRAS HUELVA MAERSK PORTUGAL - AGENTES TRANSPORTES INTERN PORTA-CONTENTORES
2020/12/16 15:00 ESC202002154 002159 9610717 JAMAICA BAY VRMC9 HONG KONG 179.9 24428.0 DOCA 2 NORTE 5.5 7.0 FERROL HOUSTON NAVEX - EMP. PORT. DE NAVEGACAO GRANELEIRO
2020/12/17 06:00 ESC202002721 002731 9379351 VENTO DI TRAMONTANA 9HA5103 MALTA 184.0 17687.0 TERMINAL DE CONTENTORES SUL CASABLANCA SETÚBAL Tarros Portugal - Agentes de Navegação S.A. PORTA-CONTENTORES
2020/12/17 06:00 ESC202002651 002660 9516789 AS SELINA D5BG4 LIBERIA 175.47 18358.0 TERMINAL DE CONTENTORES SUL 9.6 9.6 DUNKERQUE LISBOA HAPAG-LLOYD PORTUGAL PORTA-CONTENTORES
2020/12/17 07:00 ESC202002684 002694 9483334 ELBWIND 5BNL5 CHIPRE 151.73 10585.0 TERMINAL DE CONTENTORES SUL 6.5 6.5 SETÚBAL FERROL MACANDREWS - NAVEGACAO E TRANSITO, LD PORTA-CONTENTORES
2020/12/17 17:00 ESC202002523 002528 9388390 FUNCHALENSE 5 CSKN PORTUGAL 127.0 7580.0 TERMINAL DE CONTENTORES NORTE 6.0 6.0 CANIÇAL LISBOA PMAR - Navegação, Lda PORTA-CONTENTORES
2020/12/18 07:00 ESC202002677 002687 9461594 STEFAN SIBUM 5BQX3 CHIPRE 151.74 10585.0 TERMINAL DE CONTENTORES SUL 6.5 6.5 VIGO SETÚBAL MACANDREWS - NAVEGACAO E TRANSITO, LD PORTA-CONTENTORES
2020/12/19 06:00 ESC202002704 002714 9242560 AMELIE BORCHARD V2GC4 ANTIGUA E BARBUDA 134.44 9981.0 TERMINAL DE CONTENTORES NORTE 7.0 7.0 CASTELLÓN DE LA PLANA DUBLIN MARMEDSA - AGENCIA MARITIMA, LDA PORTA-CONTENTORES
2020/12/19 06:00 ESC202002705 002715 9354428 SARA BORCHARD CQEJ PORTUGAL 134.44 9962.0 TERMINAL DE CONTENTORES NORTE 7.0 7.0 LIVERPOOL CASTELLÓN DE LA PLANA MARMEDSA - AGENCIA MARITIMA, LDA PORTA-CONTENTORES
2020/12/19 06:00 ESC202002726 002736 9150470 LAGOA D4HK CABO VERDE 100.57 3981.0 TERMINAL DE CONTENTORES NORTE 6.5 6.5 MINDELO LISBOA SOFRENA - SOC. AFRET. NAVEGACAO PORTA-CONTENTORES
2020/12/19 07:00 ESC202002685 002695 9255775 ENCOUNTER PHA0 PAISES BAIXOS 133.9 7642.0 TERMINAL DE CONTENTORES SUL 6.5 6.5 SETÚBAL LIVERPOOL MACANDREWS - NAVEGACAO E TRANSITO, LD PORTA-CONTENTORES
2020/12/20 07:00 ESC202002686 002696 9287792 NEUBURG CQAZ8 PORTUGAL 140.56 7852.0 TERMINAL DE CONTENTORES SUL 6.5 6.5 DUBLIN SETÚBAL MACANDREWS - NAVEGACAO E TRANSITO, LD PORTA-CONTENTORES
2020/12/21 15:00 ESC202002155 002160 9352341 BRENS CQAZ3 PORTUGAL 118.55 4990.0 DOCA 2 NORTE 4.5 6.5 CASABLANCA CASABLANCA NAVEX - EMP. PORT. DE NAVEGACAO CARGA GERAL N.D.
2020/12/23 06:00 ESC202002650 002659 9430870 HANSA NEUBURG D5KB8 LIBERIA 175.46 18326.0 TERMINAL DE CONTENTORES SUL 8.7 8.9 TANGER MED ANTWERPEN HAPAG-LLOYD PORTUGAL PORTA-CONTENTORES
2020/12/23 08:00 ESC202002672 002682 9338967 EM HYDRA A8XP7 LIBERIA 175.5 18334.0 TERMINAL DE CONTENTORES SUL ALGECIRAS HUELVA MAERSK PORTUGAL - AGENTES TRANSPORTES INTERN PORTA-CONTENTORES
2020/12/25 06:00 ESC202002709 002719 9301201 MASTERY D A8ZB5 LIBERIA 154.85 8971.0 TERMINAL DE CONTENTORES SUL 7.0 7.0 LISBOA TILBURY MARMEDSA - AGENCIA MARITIMA, LDA PORTA-CONTENTORES
2020/12/25 06:00 ESC202002722 002732 9337365 VENTO DI MAESTRALE 9HA5104 MALTA 183.86 17687.0 TERMINAL DE CONTENTORES SUL CASABLANCA SETÚBAL Tarros Portugal - Agentes de Navegação S.A. PORTA-CONTENTORES
2020/12/26 06:00 ESC202002707 002717 9242560 AMELIE BORCHARD V2GC4 ANTIGUA E BARBUDA 134.44 9981.0 TERMINAL DE CONTENTORES NORTE 7.0 7.0 LIVERPOOL CASTELLÓN DE LA PLANA MARMEDSA - AGENCIA MARITIMA, LDA PORTA-CONTENTORES
2020/12/26 06:00 ESC202002706 002716 9242558 NAAMA BORCHARD V2AR8 ANTIGUA E BARBUDA 134.44 9981.0 TERMINAL DE CONTENTORES NORTE 7.0 7.0 CASTELLÓN DE LA PLANA DUBLIN MARMEDSA - AGENCIA MARITIMA, LDA PORTA-CONTENTORES
2020/12/30 08:00 ESC202002673 002683 9338967 EM HYDRA A8XP7 LIBERIA 175.5 18334.0 TERMINAL DE CONTENTORES SUL ALGECIRAS HUELVA MAERSK PORTUGAL - AGENTES TRANSPORTES INTERN PORTA-CONTENTORES
2020/12/31 06:00 ESC202002653 002662 9430870 HANSA NEUBURG D5KB8 LIBERIA 175.46 18326.0 TERMINAL DE CONTENTORES SUL DUNKERQUE LISBOA HAPAG-LLOYD PORTUGAL PORTA-CONTENTORES
2021/01/10 07:00 ESC201902113 002134 9871529 WORLD VOYAGER CQAE4 PORTUGAL 126.0 9934.0 DOCA 1 NORTE - PASSAGEIROS 4.0 4.0 VIANA DO CASTELO LISBOA NAVEX - EMP. PORT. DE NAVEGACAO CRUZEIROS
2021/01/11 07:00 ESC201802066 002075 7108930 BLACK WATCH C6RS5 ILHAS BAAMAS 205.47 28613.0 TERMINAL DE CRUZEIROS 7.2 7.2 UNKOWN LOCATION UNKOWN LOCATION WILHELMSEN SHIPS SERVICE PORTUGAL, S.A. CRUZEIROS
2021/02/27 07:00 ESC201802445 002450 9490040 AIDASOL ICPE ITALIA 253.33 71304.0 TERMINAL DE CRUZEIROS 7.9 7.9 LISBOA LA CORUÑA JAMES RAWES-NAVEGAÇÃO, LDA CRUZEIROS
2021/03/01 07:00 ESC201902900 002929 9657090 VARIETY VOYAGER 9HA3073 MALTA 65.95 1593.0 DOCA 1 NORTE - PASSAGEIROS 4.0 4.0 VIGO LISBOA NAVEX - EMP. PORT. DE NAVEGACAO CRUZEIROS
2021/03/03 09:00 ESC201900631 000633 8918136 ZENITH 9HXM8 MALTA 208.0 47413.0 TERMINAL DE CRUZEIROS 8.0 8.0 LISBOA AGADIR UNIVERSAL MARITIMA, LDA CRUZEIROS
2021/03/05 09:00 ESC202002120 002125 8201480 ARTANIA C6CY5 ILHAS BAAMAS 230.61 44656.0 TERMINAL DE CRUZEIROS LA CORUÑA LISBOA GARLAND NAVEGACAO CRUZEIROS
2021/03/17 09:00 ESC201900633 000635 8918136 ZENITH 9HXM8 MALTA 208.0 47413.0 TERMINAL DE CRUZEIROS 8.0 8.0 LISBOA AGADIR UNIVERSAL MARITIMA, LDA CRUZEIROS
2021/03/23 08:00 ESC202002122 002127 8201480 ARTANIA C6CY5 ILHAS BAAMAS 230.61 44656.0 TERMINAL DE CRUZEIROS FERROL LISBOA GARLAND NAVEGACAO CRUZEIROS
2021/03/25 08:00 ESC202002123 002128 8700280 AMERA C6EA7 ILHAS BAAMAS 204.0 38848.0 DOCA 1 NORTE - PASSAGEIROS VIGO FUNCHAL, MADEIRA GARLAND NAVEGACAO CRUZEIROS
2021/03/31 09:00 ESC201900634 000636 8918136 ZENITH 9HXM8 MALTA 208.0 47413.0 TERMINAL DE CRUZEIROS 8.0 8.0 LISBOA AGADIR UNIVERSAL MARITIMA, LDA CRUZEIROS
2021/04/01 07:00 ESC202002445 002449 8919245 VASCO DA GAMA C6EG8 ILHAS BAAMAS 219.3 55877.0 TERMINAL DE CRUZEIROS 6.0 6.0 LISBOA GIBRALTAR NAVEX - EMP. PORT. DE NAVEGACAO CRUZEIROS
2021/04/05 06:00 ESC202001852 001855 8506294 BALMORAL C6II4 ILHAS BAAMAS 217.91 43537.0 TERMINAL DE CRUZEIROS 7.5 7.5 UNKOWN LOCATION UNKOWN LOCATION WILHELMSEN SHIPS SERVICE PORTUGAL, S.A. CRUZEIROS
2021/04/05 07:00 ESC202001875 001879 7218395 BOUDICCA C6VA3 ILHAS BAAMAS 206.96 28551.0 TERMINAL DE CRUZEIROS 7.5 7.5 UNKOWN LOCATION UNKOWN LOCATION WILHELMSEN SHIPS SERVICE PORTUGAL, S.A. CRUZEIROS
2021/04/05 08:00 ESC202002446 002450 8919245 VASCO DA GAMA C6EG8 ILHAS BAAMAS 219.3 55877.0 TERMINAL DE CRUZEIROS 6.0 6.0 LISBOA LISBOA NAVEX - EMP. PORT. DE NAVEGACAO CRUZEIROS
2021/04/06 07:00 ESC201802816 002825 9641730 MEIN SCHIFF 3 9HA3062 MALTA 293.2 99526.0 TERMINAL DE CRUZEIROS 8.0 8.0 LISBOA LA CORUÑA UNIVERSAL MARITIMA, LDA CRUZEIROS
2021/04/11 08:00 ESC202000038 000040 9112789 AIDACARA IBNR ITALIA 193.34 38557.0 TERMINAL DE CRUZEIROS 7.6 7.6 LISBOA LA CORUÑA JAMES RAWES-NAVEGAÇÃO, LDA CRUZEIROS
2021/04/13 07:00 ESC201802823 002832 9650418 VIKING STAR LAIW6 NORUEGA 228.3 47842.0 TERMINAL DE CRUZEIROS 8.0 8.0 MÁLAGA FALMOUTH JAMES RAWES-NAVEGAÇÃO, LDA CRUZEIROS
2021/04/17 07:00 ESC201901002 001012 9678408 MEIN SCHIFF 4 9HA3513 MALTA 293.6 99526.0 TERMINAL DE CRUZEIROS 8.0 8.0 LISBOA BILBAO UNIVERSAL MARITIMA, LDA CRUZEIROS
2021/04/18 12:30 ESC201900710 000713 9502518 L'AUSTRAL FLTU FRANCA 142.1 10944.0 DOCA 1 NORTE - PASSAGEIROS 7.0 7.0 LISBOA PASAJES JAMES RAWES-NAVEGAÇÃO, LDA CRUZEIROS
2021/04/19 07:00 ESC201802070 002079 8506294 BALMORAL C6II4 ILHAS BAAMAS 217.91 43537.0 TERMINAL DE CRUZEIROS 7.2 7.2 UNKOWN LOCATION UNKOWN LOCATION WILHELMSEN SHIPS SERVICE PORTUGAL, S.A. CRUZEIROS
2021/04/21 06:00 ESC201802173 002182 8700280 AMERA C6EA7 ILHAS BAAMAS 204.0 38848.0 TERMINAL DE CRUZEIROS PONTA DELGADA FERROL GARLAND NAVEGACAO CRUZEIROS
2021/04/23 06:00 ESC202001663 001668 9793545 GOLDEN HORIZON 9AA7492 MALTA 162.0 8770.0 TERMINAL DE CRUZEIROS 5.0 5.0 LISBOA LA CORUÑA NAVEX - EMP. PORT. DE NAVEGACAO CRUZEIROS
2021/04/24 06:00 ESC201902020 002040 9451094 CELEBRITY SILHOUETTE 9HA2583 MALTA 315.0 122210.0 TERMINAL DE CRUZEIROS 8.0 8.0 UNKOWN LOCATION UNKOWN LOCATION UNIVERSAL MARITIMA, LDA CRUZEIROS
2021/04/24 07:00 ESC201802825 9833175 VIKING SEVEN VKSVN NORUEGA 228.2 47800.0 TERMINAL DE CRUZEIROS 8.0 8.0 MÁLAGA FALMOUTH JAMES RAWES-NAVEGAÇÃO, LDA NAVIO EM CONSTRUÇÃO
2021/04/25 07:00 ESC201901939 001956 9490052 AIDAMAR ICSJ ITALIA 253.22 71304.0 DOCA 1 NORTE - PASSAGEIROS 8.1 8.1 LISBOA LA CORUÑA JAMES RAWES-NAVEGAÇÃO, LDA CRUZEIROS
2021/04/25 08:00 ESC202000116 000116 9221554 AIDAVITA IBNP ITALIA 202.85 42289.0 DOCA 1 NORTE - PASSAGEIROS 7.6 7.6 LISBOA LA CORUÑA JAMES RAWES-NAVEGAÇÃO, LDA CRUZEIROS
2021/04/26 08:00 ESC202002447 002451 8919245 VASCO DA GAMA C6EG8 ILHAS BAAMAS 219.3 55877.0 TERMINAL DE CRUZEIROS 6.0 6.0 LISBOA LA CORUÑA NAVEX - EMP. PORT. DE NAVEGACAO CRUZEIROS
2021/04/27 07:00 ESC201900956 000966 7304314 ALBATROS C6CN4 ILHAS BAAMAS 205.46 28518.0 DOCA 1 NORTE - PASSAGEIROS TANGIER LA CORUÑA GARLAND NAVEGACAO CRUZEIROS
2021/04/28 09:00 ESC201901363 001374 9169524 AURORA ZCDW9 BERMUDAS 270.0 76152.0 TERMINAL DE CRUZEIROS 8.1 8.1 LISBOA ST PETER PORT JAMES RAWES-NAVEGAÇÃO, LDA CRUZEIROS
2021/04/29 07:00 ESC202002380 002385 8913162 AMADEA C6VE9 ILHAS BAAMAS 190.0 29008.0 DOCA 1 NORTE - PASSAGEIROS CADIZ LA CORUÑA GARLAND NAVEGACAO CRUZEIROS
2021/04/30 07:00 ESC201901950 001968 9636955 AIDAPRIMA IBGU ITALIA 299.95 125572.0 TERMINAL DE CRUZEIROS 8.1 8.1 LISBOA LA CORUÑA JAMES RAWES-NAVEGAÇÃO, LDA CRUZEIROS
2021/04/30 07:00 ESC201802824 9796262 VIKING JUPITER LAYP7 NORUEGA 228.26 47861.0 TERMINAL DE CRUZEIROS 8.0 8.0 MÁLAGA FALMOUTH JAMES RAWES-NAVEGAÇÃO, LDA CRUZEIROS
2021/04/30 13:00 ESC201901380 001391 9138329 HAMBURG C6OX6 ILHAS BAAMAS 145.0 15067.0 DOCA 1 NORTE - PASSAGEIROS LISBOA VILLAGARCÍA (DE AROUSA) OREY COMERCIO E NAVEGACAO CRUZEIROS
2021/05/01 11:00 ESC202000281 000280 6602898 OCEAN MAJESTY CQSC PORTUGAL 135.3 10417.0 DOCA 1 NORTE - PASSAGEIROS 5.5 5.5 SEVILLA VIGO WILHELMSEN SHIPS SERVICE PORTUGAL, S.A. CRUZEIROS
2021/05/01 11:00 ESC201901377 001388 8802868 SEA SPIRIT C6PJ8 ILHAS BAAMAS 90.36 4200.0 DOCA 1 NORTE - PASSAGEIROS 5.2 5.2 LISBOA UNKOWN LOCATION WILHELMSEN SHIPS SERVICE PORTUGAL, S.A. CRUZEIROS
2021/05/02 08:00 ESC202002634 002643 9320087 MSC MUSICA 3EFK6 PANAMA 293.8 92409.0 TERMINAL DE CRUZEIROS LISBOA FERROL MEDITERRANEAN SHIPPING CO. CRUZEIROS
2021/05/03 08:00 ESC201900652 000654 9807085 SEVEN SEAS SPLENDOR 00000 ILHAS MARSHALL 223.0 54000.0 TERMINAL DE CRUZEIROS 7.0 7.0 LISBOA FERROL UNIVERSAL MARITIMA, LDA CRUZEIROS
2021/05/05 07:00 ESC201901434 001445 9783564 MEIN SCHIFF 1 9HA4683 MALTA 315.7 111554.0 TERMINAL DE CRUZEIROS 6.0 6.0 LISBOA LA CORUÑA UNIVERSAL MARITIMA, LDA CRUZEIROS
2021/05/05 08:00 ESC201901294 001305 9187899 SIRENA V7RX6 ILHAS MARSHALL 181.0 30277.0 DOCA 1 NORTE - PASSAGEIROS 7.0 7.0 LISBOA SAN SEBASTIAN DE LA GOMERA UNIVERSAL MARITIMA, LDA CRUZEIROS
2021/05/06 08:30 ESC202001672 001677 8903923 SILVER CLOUD C6MQ5 ILHAS BAAMAS 155.81 17014.0 DOCA 1 NORTE - PASSAGEIROS 7.0 7.0 LISBOA LA CORUÑA UNIVERSAL MARITIMA, LDA CRUZEIROS
2021/05/09 08:00 ESC202002485 002491 9483126 SEABOURN QUEST C6YZ5 ILHAS BAAMAS 198.19 32477.0 DOCA 1 NORTE - PASSAGEIROS 8.1 8.1 LA CORUÑA LISBOA JAMES RAWES-NAVEGAÇÃO, LDA CRUZEIROS
2021/05/11 09:00 ESC202002166 002171 9813084 FRIDTJOF NANSEN na NORUEGA 140.0 20000.0 DOCA 1 NORTE - PASSAGEIROS LISBOA LA CORUÑA OREY COMERCIO E NAVEGACAO CRUZEIROS
2021/05/12 10:00 ESC201901241 001253 8203438 SEADREAM I C6PW8 ILHAS BAAMAS 104.83 4333.0 DOCA 1 NORTE - PASSAGEIROS 4.4 4.4 LISBOA VIGO PORTMAR CRUZEIROS
2021/05/19 08:00 ESC202001876 001880 7108930 BLACK WATCH C6RS5 ILHAS BAAMAS 205.47 28613.0 TERMINAL DE CRUZEIROS 7.5 7.5 UNKOWN LOCATION UNKOWN LOCATION WILHELMSEN SHIPS SERVICE PORTUGAL, S.A. CRUZEIROS
2021/05/19 12:30 ESC202001671 001676 7218395 BOUDICCA C6VA3 ILHAS BAAMAS 206.96 28551.0 TERMINAL DE CRUZEIROS 7.5 7.5 UNKOWN LOCATION UNKOWN LOCATION WILHELMSEN SHIPS SERVICE PORTUGAL, S.A. CRUZEIROS
2021/05/20 07:00 ESC201901008 001018 9753208 MEIN SCHIFF 6 9HA4330 MALTA 295.25 98811.0 TERMINAL DE CRUZEIROS 8.0 8.0 LISBOA LA CORUÑA UNIVERSAL MARITIMA, LDA CRUZEIROS
2021/05/23 08:00 ESC202001724 001729 9477438 QUEEN ELIZABETH ZCEF2 BERMUDAS 294.0 90901.0 TERMINAL DE CRUZEIROS 8.1 8.1 LISBOA LA CORUÑA JAMES RAWES-NAVEGAÇÃO, LDA CRUZEIROS
2021/05/24 07:00 ESC201900515 000517 9141807 DEUTSCHLAND C6BZ6 ILHAS BAAMAS 175.49 22496.0 TERMINAL DE CRUZEIROS LISBOA LA CORUÑA GARLAND NAVEGACAO CRUZEIROS
2021/05/28 08:00 ESC201900838 000842 9438066 MARINA V7SK2 ILHAS MARSHALL 239.3 66084.0 TERMINAL DE CRUZEIROS 7.4 7.4 LISBOA LA CORUÑA UNIVERSAL MARITIMA, LDA CRUZEIROS
2021/05/28 08:00 ESC202000041 9837470 RYNDAM RYND PAISES BAIXOS 299.5 99500.0 TERMINAL DE CRUZEIROS 8.1 8.1 LISBOA LA CORUÑA JAMES RAWES-NAVEGAÇÃO, LDA NAVIO EM CONSTRUÇÃO
2021/05/28 09:30 ESC201901258 001268 9797371 SCENIC ECLIPSE ? MALTA 165.7 22498.0 DOCA 1 NORTE - PASSAGEIROS 6.0 6.0 LISBOA DOUARNENEZ UNIVERSAL MARITIMA, LDA CRUZEIROS
2021/05/30 07:00 ESC201901937 001954 9224726 CARNIVAL LEGEND 9HA3667 MALTA 292.5 85942.0 TERMINAL DE CRUZEIROS 8.1 8.1 LISBOA LA CORUÑA JAMES RAWES-NAVEGAÇÃO, LDA CRUZEIROS
2021/06/01 07:00 ESC201901649 001662 9437866 SILVER SPIRIT C6XU6 ILHAS BAAMAS 210.7 39444.0 TERMINAL DE CRUZEIROS 6.0 6.0 LISBOA BILBAO UNIVERSAL MARITIMA, LDA CRUZEIROS
2021/06/01 07:30 ESC202002058 002062 9200940 AZAMARA JOURNEY 9HOB8 MALTA 181.0 30277.0 DOCA 1 NORTE - PASSAGEIROS 6.0 6.0 LISBOA LA CORUÑA UNIVERSAL MARITIMA, LDA CRUZEIROS
2021/06/04 07:00 ESC201901081 001093 9417098 SEABOURN SOJOURN C6YA5 ILHAS BAAMAS 198.19 32346.0 DOCA 1 NORTE - PASSAGEIROS 7.2 7.2 CASABLANCA LISBOA JAMES RAWES-NAVEGAÇÃO, LDA CRUZEIROS
2021/06/06 12:00 ESC202000610 000608 7904889 BERLIN 9HA2295 MALTA 139.3 9570.0 DOCA 1 NORTE - PASSAGEIROS 7.0 7.0 LISBOA LA CORUÑA JAMES RAWES-NAVEGAÇÃO, LDA CRUZEIROS
2021/06/07 08:00 ESC201901161 001174 8919269 RIJNDAM PHFV PAISES BAIXOS 219.3 55819.0 TERMINAL DE CRUZEIROS 7.8 7.8 LA CORUÑA CADIZ JAMES RAWES-NAVEGAÇÃO, LDA CRUZEIROS
2021/06/08 09:00 ESC201901362 001373 9320556 QUEEN VICTORIA ZCEF3 BERMUDAS 294.0 90049.0 TERMINAL DE CRUZEIROS 8.1 8.1 SOUTHAMPTON BARCELONA JAMES RAWES-NAVEGAÇÃO, LDA CRUZEIROS
2021/06/10 07:00 ESC201801514 001521 9156462 INSIGNIA V7DM2 ILHAS MARSHALL 181.0 30277.0 TERMINAL DE CRUZEIROS 8.0 7.85 LISBOA LA CORUÑA UNIVERSAL MARITIMA, LDA CRUZEIROS
2021/06/14 07:00 ESC201900237 000239 9210218 AZAMARA QUEST 9HOM8 MALTA 181.0 30277.0 TERMINAL DE CRUZEIROS 7.0 7.0 LISBOA BILBAO UNIVERSAL MARITIMA, LDA CRUZEIROS
2021/06/19 08:00 ESC202001725 001730 9477438 QUEEN ELIZABETH ZCEF2 BERMUDAS 294.0 90901.0 TERMINAL DE CRUZEIROS 8.1 8.1 LA CORUÑA LISBOA JAMES RAWES-NAVEGAÇÃO, LDA CRUZEIROS
2021/06/25 08:00 ESC201900656 000658 9247144 SEVEN SEAS VOYAGER C6SW3 ILHAS BAAMAS 206.5 42363.0 TERMINAL DE CRUZEIROS 7.0 7.0 LISBOA LA CORUÑA UNIVERSAL MARITIMA, LDA CRUZEIROS
2021/06/29 09:00 ESC201901242 001254 8203438 SEADREAM I C6PW8 ILHAS BAAMAS 104.83 4333.0 DOCA 1 NORTE - PASSAGEIROS 4.4 4.4 LISBOA VIGO PORTMAR CRUZEIROS
2021/06/30 07:30 ESC202001853 001856 9000699 BRAEMAR C6SY7 ILHAS BAAMAS 195.82 24344.0 TERMINAL DE CRUZEIROS 7.5 7.5 UNKOWN LOCATION UNKOWN LOCATION WILHELMSEN SHIPS SERVICE PORTUGAL, S.A. CRUZEIROS
2021/07/01 08:00 ESC201902751 002783 9871531 WORLD NAVIGATOR n/d PORTUGAL 126.0 9315.0 TERMINAL DE CRUZEIROS 4.0 4.0 VIANA DO CASTELO LISBOA NAVEX - EMP. PORT. DE NAVEGACAO CRUZEIROS
2021/07/02 08:30 ESC202001479 001485 7225910 AEGEAN ODYSSEY HOBW PANAMA 140.5 12094.0 DOCA 1 NORTE - PASSAGEIROS 7.0 7.0 LISBOA LA CORUÑA JAMES RAWES-NAVEGAÇÃO, LDA CRUZEIROS
2021/07/06 06:00 ESC201900307 8456 VENTURE ONE VNTO MALTA 170.0 22800.0 DOCA 1 NORTE - PASSAGEIROS 5.6 5.6 LISBOA LA CORUÑA JAMES RAWES-NAVEGAÇÃO, LDA NAVIO EM CONSTRUÇÃO
2021/07/15 08:00 ESC201901243 001255 8203438 SEADREAM I C6PW8 ILHAS BAAMAS 104.83 4333.0 DOCA 1 NORTE - PASSAGEIROS 4.4 4.4 LISBOA VIGO PORTMAR CRUZEIROS
2021/08/08 08:00 ESC201901044 001055 9753208 MEIN SCHIFF 6 9HA4330 MALTA 295.25 98811.0 TERMINAL DE CRUZEIROS 8.0 8.0 LA CORUÑA LISBOA UNIVERSAL MARITIMA, LDA CRUZEIROS
2021/08/13 07:00 ESC201900655 000657 9064126 SEVEN SEAS NAVIGATOR C6ZI9 ILHAS BAAMAS 170.69 28803.0 TERMINAL DE CRUZEIROS 7.0 7.0 FERROL LISBOA UNIVERSAL MARITIMA, LDA CRUZEIROS
2021/08/15 07:00 ESC202001727 9837470 RYNDAM RYND PAISES BAIXOS 299.5 99500.0 TERMINAL DE CRUZEIROS 8.1 8.1 LISBOA LA CORUÑA JAMES RAWES-NAVEGAÇÃO, LDA NAVIO EM CONSTRUÇÃO
2021/08/18 07:00 ESC202000611 000609 7904889 BERLIN 9HA2295 MALTA 139.3 9570.0 DOCA 1 NORTE - PASSAGEIROS 7.0 7.0 LA CORUÑA LISBOA JAMES RAWES-NAVEGAÇÃO, LDA CRUZEIROS
2021/08/20 08:00 ESC202001726 001731 9477438 QUEEN ELIZABETH ZCEF2 BERMUDAS 294.0 90901.0 TERMINAL DE CRUZEIROS 8.1 8.1 LA CORUÑA LISBOA JAMES RAWES-NAVEGAÇÃO, LDA CRUZEIROS
2021/08/21 08:00 ESC202002571 002577 8802894 ISLAND SKY C6TQ2 ILHAS BAAMAS 90.36 4200.0 DOCA 1 NORTE - PASSAGEIROS 7.0 7.0 LA CORUÑA LISBOA JAMES RAWES-NAVEGAÇÃO, LDA CRUZEIROS
2021/08/25 07:00 ESC201900658 000660 9247144 SEVEN SEAS VOYAGER C6SW3 ILHAS BAAMAS 206.5 42363.0 TERMINAL DE CRUZEIROS 7.0 7.0 LA CORUÑA LISBOA UNIVERSAL MARITIMA, LDA CRUZEIROS
2021/08/26 09:00 ESC202001480 001486 7225910 AEGEAN ODYSSEY HOBW PANAMA 140.5 12094.0 DOCA 1 NORTE - PASSAGEIROS 7.0 7.0 LISBOA LA CORUÑA JAMES RAWES-NAVEGAÇÃO, LDA CRUZEIROS
2021/08/28 07:00 ESC201902085 002105 9189421 CELEBRITY INFINITY 9HJD9 MALTA 294.0 90940.0 TERMINAL DE CRUZEIROS 8.0 8.0 LA CORUÑA LISBOA UNIVERSAL MARITIMA, LDA CRUZEIROS
2021/08/31 07:00 ESC201901938 001955 9224726 CARNIVAL LEGEND 9HA3667 MALTA 292.5 85942.0 TERMINAL DE CRUZEIROS 8.1 8.1 LA CORUÑA LISBOA JAMES RAWES-NAVEGAÇÃO, LDA CRUZEIROS
2021/08/31 08:00 ESC201902117 002138 9871529 WORLD VOYAGER CQAE4 PORTUGAL 126.0 9934.0 DOCA 1 NORTE - PASSAGEIROS 4.0 4.0 LISBOA LA CORUÑA NAVEX - EMP. PORT. DE NAVEGACAO CRUZEIROS
2021/09/01 07:00 ESC201902086 002107 9189421 CELEBRITY INFINITY 9HJD9 MALTA 294.0 90940.0 TERMINAL DE CRUZEIROS 8.0 8.0 LISBOA SEVILLA UNIVERSAL MARITIMA, LDA CRUZEIROS
2021/09/05 08:00 ESC202001383 9793545 GOLDEN HORIZON 9AA7492 MALTA 162.0 8770.0 TERMINAL DE CRUZEIROS 6.0 6.0 LA CORUÑA LISBOA NAVEX - EMP. PORT. DE NAVEGACAO CRUZEIROS
2021/09/07 08:00 ESC201900238 000240 9200940 AZAMARA JOURNEY 9HOB8 MALTA 181.0 30277.0 TERMINAL DE CRUZEIROS 7.0 7.0 LA CORUÑA LISBOA UNIVERSAL MARITIMA, LDA CRUZEIROS
2021/09/11 07:00 ESC201900836 000840 9156462 INSIGNIA V7DM2 ILHAS MARSHALL 181.0 30277.0 TERMINAL DE CRUZEIROS 6.0 6.0 ST MALO SAINT GEORGE UNIVERSAL MARITIMA, LDA CRUZEIROS
2021/09/13 08:00 ESC201902903 002932 8506294 BALMORAL C6II4 ILHAS BAAMAS 217.91 43537.0 TERMINAL DE CRUZEIROS 7.5 7.5 UNKOWN LOCATION UNKOWN LOCATION WILHELMSEN SHIPS SERVICE PORTUGAL, S.A. CRUZEIROS
2021/09/15 09:00 ESC201902588 002616 9479864 COSTA FASCINOSA ICPO ITALIA 289.58 113321.0 TERMINAL DE CRUZEIROS 8.1 8.1 LA CORUÑA LISBOA JAMES RAWES-NAVEGAÇÃO, LDA CRUZEIROS
2021/09/16 09:00 ESC201902047 002100 9814052 LE DUMONT-D'URVILLE FLDS FRANCA 131.46 9988.0 DOCA 1 NORTE - PASSAGEIROS 7.0 7.0 LISBOA CEE JAMES RAWES-NAVEGAÇÃO, LDA CRUZEIROS
2021/09/17 07:00 ESC201802519 002524 9189421 CELEBRITY INFINITY 9HJD9 MALTA 294.0 90940.0 TERMINAL DE CRUZEIROS 7.0 7.0 LA CORUÑA LISBOA UNIVERSAL MARITIMA, LDA CRUZEIROS
2021/09/18 07:00 ESC201902093 002113 9228356 JEWEL OF THE SEAS C6FW9 ILHAS BAAMAS 293.0 90090.0 TERMINAL DE CRUZEIROS 8.0 8.0 LISBOA GIBRALTAR UNIVERSAL MARITIMA, LDA CRUZEIROS
2021/09/21 07:00 ESC201902088 002108 9189421 CELEBRITY INFINITY 9HJD9 MALTA 294.0 90940.0 TERMINAL DE CRUZEIROS 8.0 8.0 LISBOA SEVILLA UNIVERSAL MARITIMA, LDA CRUZEIROS
2021/09/29 09:00 ESC201902413 002437 8907424 BREMEN C6JC3 ILHAS BAAMAS 111.51 6752.0 TERMINAL DE CRUZEIROS 4.5 4.5 LA CORUÑA LISBOA UNIVERSAL MARITIMA, LDA CRUZEIROS
2021/09/30 07:00 ESC201900654 000656 9807085 SEVEN SEAS SPLENDOR 00000 ILHAS MARSHALL 223.0 54000.0 TERMINAL DE CRUZEIROS 7.0 7.0 LA CORUÑA LISBOA UNIVERSAL MARITIMA, LDA CRUZEIROS
2021/09/30 08:00 ESC201902102 002123 9814052 LE DUMONT-D'URVILLE FLDS FRANCA 131.46 9988.0 DOCA 1 NORTE - PASSAGEIROS 7.0 7.0 LA CORUÑA LISBOA JAMES RAWES-NAVEGAÇÃO, LDA CRUZEIROS
2021/09/30 08:00 ESC201902120 002141 9871529 WORLD VOYAGER CQAE4 PORTUGAL 126.0 9934.0 DOCA 1 NORTE - PASSAGEIROS 4.0 4.0 LA CORUÑA LISBOA NAVEX - EMP. PORT. DE NAVEGACAO CRUZEIROS
2021/10/01 08:00 ESC201901278 001288 7915096 OCEAN DREAM 3EWW6 PANAMA 204.76 35265.0 DOCA 1 NORTE - PASSAGEIROS VALENCIA LIVERPOOL GARLAND NAVEGACAO CRUZEIROS
2021/10/02 08:00 ESC201902205 002227 9814052 LE DUMONT-D'URVILLE FLDS FRANCA 131.46 9988.0 DOCA 1 NORTE - PASSAGEIROS 7.0 7.0 LISBOA CEE JAMES RAWES-NAVEGAÇÃO, LDA CRUZEIROS
2021/10/02 10:00 ESC202002635 002644 9320087 MSC MUSICA 3EFK6 PANAMA 293.8 92409.0 TERMINAL DE CRUZEIROS FERROL LISBOA MEDITERRANEAN SHIPPING CO. CRUZEIROS
2021/10/03 06:00 ESC201900839 000843 9438066 MARINA V7SK2 ILHAS MARSHALL 239.3 66084.0 DOCA 1 NORTE - PASSAGEIROS 7.4 7.4 VILLAGARCÍA (DE AROUSA) LISBOA UNIVERSAL MARITIMA, LDA CRUZEIROS
2021/10/04 08:00 ESC202002587 002593 9417098 SEABOURN SOJOURN C6YA5 ILHAS BAAMAS 198.19 32346.0 DOCA 1 NORTE - PASSAGEIROS 7.6 7.6 LISBOA LA CORUÑA JAMES RAWES-NAVEGAÇÃO, LDA CRUZEIROS
2021/10/06 07:00 ESC201902504 002528 9451094 CELEBRITY SILHOUETTE 9HA2583 MALTA 315.0 122210.0 TERMINAL DE CRUZEIROS 8.0 8.0 LISBOA SOUTHAMPTON UNIVERSAL MARITIMA, LDA CRUZEIROS
2021/10/07 07:00 ESC201802521 002526 9189421 CELEBRITY INFINITY 9HJD9 MALTA 294.0 90940.0 TERMINAL DE CRUZEIROS 8.0 8.0 LA CORUÑA LISBOA UNIVERSAL MARITIMA, LDA CRUZEIROS
2021/10/07 08:00 ESC201901650 001663 9437866 SILVER SPIRIT C6XU6 ILHAS BAAMAS 210.7 39444.0 DOCA 1 NORTE - PASSAGEIROS 6.0 6.0 LA CORUÑA LISBOA UNIVERSAL MARITIMA, LDA CRUZEIROS
2021/10/08 17:00 ESC201902481 002504 9228356 JEWEL OF THE SEAS C6FW9 ILHAS BAAMAS 293.0 90090.0 TERMINAL DE CRUZEIROS 8.0 8.0 SEVILLA LISBOA UNIVERSAL MARITIMA, LDA CRUZEIROS
2021/10/10 08:00 ESC202002448 002452 8919245 VASCO DA GAMA C6EG8 ILHAS BAAMAS 219.3 55877.0 TERMINAL DE CRUZEIROS 6.0 6.0 LA CORUÑA LISBOA NAVEX - EMP. PORT. DE NAVEGACAO CRUZEIROS
2021/10/11 07:00 ESC201901797 001813 8903935 SILVER WIND C6FG2 ILHAS BAAMAS 155.81 17235.0 DOCA 1 NORTE - PASSAGEIROS 6.0 6.0 LISBOA MÁLAGA UNIVERSAL MARITIMA, LDA CRUZEIROS
2021/10/11 08:00 ESC201902311 002337 9189421 CELEBRITY INFINITY 9HJD9 MALTA 294.0 90940.0 TERMINAL DE CRUZEIROS 8.0 8.0 LISBOA SEVILLA UNIVERSAL MARITIMA, LDA CRUZEIROS
2021/10/12 07:00 ESC201901003 001013 9678408 MEIN SCHIFF 4 9HA3513 MALTA 293.6 99526.0 TERMINAL DE CRUZEIROS 8.0 8.0 LA CORUÑA LISBOA UNIVERSAL MARITIMA, LDA CRUZEIROS
2021/10/13 07:00 ESC201901340 001351 9451094 CELEBRITY SILHOUETTE 9HA2583 MALTA 315.0 122210.0 TERMINAL DE CRUZEIROS 8.0 8.0 VIGO LISBOA UNIVERSAL MARITIMA, LDA CRUZEIROS
2021/10/13 08:00 ESC201902282 9833175 VIKING SEVEN VKSVN NORUEGA 228.2 47800.0 DOCA 1 NORTE - PASSAGEIROS 8.0 8.0 FALMOUTH MÁLAGA JAMES RAWES-NAVEGAÇÃO, LDA NAVIO EM CONSTRUÇÃO
2021/10/15 07:00 ESC202001877 001881 7108930 BLACK WATCH C6RS5 ILHAS BAAMAS 205.47 28613.0 TERMINAL DE CRUZEIROS 7.5 7.5 UNKOWN LOCATION UNKOWN LOCATION WILHELMSEN SHIPS SERVICE PORTUGAL, S.A. CRUZEIROS
2021/10/16 08:00 ESC201902104 002125 9814052 LE DUMONT-D'URVILLE FLDS FRANCA 131.46 9988.0 DOCA 1 NORTE - PASSAGEIROS 7.0 7.0 LA CORUÑA LISBOA JAMES RAWES-NAVEGAÇÃO, LDA CRUZEIROS
2021/10/17 07:00 ESC202000365 000364 9800000 SPIRIT OF ADVENTURE SPDAD MALTA 236.0 57600.0 TERMINAL DE CRUZEIROS 7.6 7.6 LA CORUÑA LISBOA JAMES RAWES-NAVEGAÇÃO, LDA CRUZEIROS
2021/10/18 07:00 ESC201900835 000839 9187899 SIRENA V7RX6 ILHAS MARSHALL 181.0 30277.0 TERMINAL DE CRUZEIROS 6.0 6.0 LA CORUÑA HORTA UNIVERSAL MARITIMA, LDA CRUZEIROS
2021/10/20 08:00 ESC201902505 002529 9451094 CELEBRITY SILHOUETTE 9HA2583 MALTA 315.0 122210.0 TERMINAL DE CRUZEIROS 8.0 8.0 SOUTHAMPTON LANZAROTE UNIVERSAL MARITIMA, LDA CRUZEIROS
2021/10/21 08:00 ESC202002593 002599 9195157 NORWEGIAN STAR C6FR3 ILHAS BAAMAS 294.13 91740.0 TERMINAL DE CRUZEIROS 7.0 7.0 LA CORUÑA GUERNSEY UNIVERSAL MARITIMA, LDA CRUZEIROS
2021/10/23 08:00 ESC202001854 001857 9000699 BRAEMAR C6SY7 ILHAS BAAMAS 195.82 24344.0 TERMINAL DE CRUZEIROS 7.5 7.5 UNKOWN LOCATION UNKOWN LOCATION WILHELMSEN SHIPS SERVICE PORTUGAL, S.A. CRUZEIROS
2021/10/23 09:00 ESC202000788 000789 8506294 BALMORAL C6II4 ILHAS BAAMAS 217.91 43537.0 TERMINAL DE CRUZEIROS 5.7 LISBOA UNKOWN LOCATION WILHELMSEN SHIPS SERVICE PORTUGAL, S.A. CRUZEIROS
2021/10/31 06:00 ESC201902114 002135 9871529 WORLD VOYAGER CQAE4 PORTUGAL 126.0 9934.0 DOCA 1 NORTE - PASSAGEIROS 4.0 4.0 LA CORUÑA LISBOA NAVEX - EMP. PORT. DE NAVEGACAO CRUZEIROS
2021/11/01 08:00 ESC201902670 002699 9490052 AIDAMAR ICSJ ITALIA 253.22 71304.0 TERMINAL DE CRUZEIROS 8.1 8.1 LA CORUÑA LISBOA JAMES RAWES-NAVEGAÇÃO, LDA CRUZEIROS
2021/11/03 08:00 ESC202002594 002600 9195157 NORWEGIAN STAR C6FR3 ILHAS BAAMAS 294.13 91740.0 TERMINAL DE CRUZEIROS 7.0 7.0 LA CORUÑA LISBOA UNIVERSAL MARITIMA, LDA CRUZEIROS
2021/11/04 07:00 ESC201902666 002695 9221554 AIDAVITA IBNP ITALIA 202.85 42289.0 TERMINAL DE CRUZEIROS 8.0 8.0 PORTLAND FUNCHAL, MADEIRA JAMES RAWES-NAVEGAÇÃO, LDA CRUZEIROS
2021/11/06 08:00 ESC202002334 002339 9189421 CELEBRITY INFINITY 9HJD9 MALTA 294.0 90940.0 TERMINAL DE CRUZEIROS 7.0 7.0 SEVILLA LISBOA UNIVERSAL MARITIMA, LDA CRUZEIROS
2021/11/07 11:00 ESC201901652 001665 8201480 ARTANIA C6CY5 ILHAS BAAMAS 230.61 44656.0 TERMINAL DE CRUZEIROS FUNCHAL, MADEIRA LA CORUÑA GARLAND NAVEGACAO CRUZEIROS
2021/11/08 08:00 ESC202002335 002340 9189421 CELEBRITY INFINITY 9HJD9 MALTA 294.0 90940.0 TERMINAL DE CRUZEIROS 7.0 7.0 LISBOA SEVILLA UNIVERSAL MARITIMA, LDA CRUZEIROS
2021/11/16 07:00 ESC201900958 000968 8201480 ARTANIA C6CY5 ILHAS BAAMAS 230.61 44656.0 TERMINAL DE CRUZEIROS FERROL LISBOA GARLAND NAVEGACAO CRUZEIROS
2021/11/20 08:00 ESC202002336 002341 9189421 CELEBRITY INFINITY 9HJD9 MALTA 294.0 90940.0 TERMINAL DE CRUZEIROS 7.0 7.0 SEVILLA LISBOA UNIVERSAL MARITIMA, LDA CRUZEIROS
2021/11/22 08:00 ESC202002338 002343 9189421 CELEBRITY INFINITY 9HJD9 MALTA 294.0 90940.0 TERMINAL DE CRUZEIROS 7.0 7.0 LISBOA SEVILLA UNIVERSAL MARITIMA, LDA CRUZEIROS
2021/12/04 08:00 ESC201902438 002462 9636955 AIDAPRIMA IBGU ITALIA 299.95 125572.0 TERMINAL DE CRUZEIROS 8.2 8.2 LA CORUÑA LISBOA JAMES RAWES-NAVEGAÇÃO, LDA CRUZEIROS
2021/12/05 07:00 ESC201900959 000969 8201480 ARTANIA C6CY5 ILHAS BAAMAS 230.61 44656.0 TERMINAL DE CRUZEIROS FERROL LISBOA GARLAND NAVEGACAO CRUZEIROS
2021/12/21 08:00 ESC202000366 000365 9802683 SPIRIT OF DISCOVERY MEYE7 REINO UNIDO 236.0 58119.0 TERMINAL DE CRUZEIROS 7.6 7.6 LA CORUÑA LISBOA JAMES RAWES-NAVEGAÇÃO, LDA CRUZEIROS
2022/01/02 08:00 ESC202000020 000020 9221554 AIDAVITA IBNP ITALIA 202.85 42289.0 TERMINAL DE CRUZEIROS 8.0 8.0 LISBOA ROTTERDAM JAMES RAWES-NAVEGAÇÃO, LDA CRUZEIROS
2022/02/14 08:00 ESC202000021 000021 9221554 AIDAVITA IBNP ITALIA 202.85 42289.0 TERMINAL DE CRUZEIROS 8.1 8.1 LISBOA ROTTERDAM JAMES RAWES-NAVEGAÇÃO, LDA CRUZEIROS
2022/02/15 07:00 ESC202001078 001084 9490040 AIDASOL ICPE ITALIA 253.33 71304.0 TERMINAL DE CRUZEIROS 8.1 8.1 LISBOA CHERBOURG JAMES RAWES-NAVEGAÇÃO, LDA CRUZEIROS
2022/02/24 07:00 ESC201902667 002696 9221554 AIDAVITA IBNP ITALIA 202.85 42289.0 TERMINAL DE CRUZEIROS 8.0 8.0 PORTLAND FUNCHAL, MADEIRA JAMES RAWES-NAVEGAÇÃO, LDA CRUZEIROS
2022/02/27 08:00 ESC201902442 002466 9636955 AIDAPRIMA IBGU ITALIA 299.95 125572.0 TERMINAL DE CRUZEIROS 8.2 8.2 LISBOA LA CORUÑA JAMES RAWES-NAVEGAÇÃO, LDA CRUZEIROS
2022/04/08 08:00 ESC202001481 001487 9490052 AIDAMAR ICSJ ITALIA 253.22 71304.0 TERMINAL DE CRUZEIROS 8.1 8.1 LISBOA LA CORUÑA JAMES RAWES-NAVEGAÇÃO, LDA CRUZEIROS
2022/04/12 08:00 ESC201902262 002286 9796262 VIKING JUPITER LAYP7 NORUEGA 228.26 47861.0 TERMINAL DE CRUZEIROS 8.0 8.0 MÁLAGA FALMOUTH JAMES RAWES-NAVEGAÇÃO, LDA CRUZEIROS
2022/04/13 08:00 ESC202002222 002226 9293399 CROWN PRINCESS ZCDM6 BERMUDAS 288.63 113561.0 TERMINAL DE CRUZEIROS 8.1 8.1 BILBAO LISBOA JAMES RAWES-NAVEGAÇÃO, LDA CRUZEIROS
2022/04/14 10:00 ESC202000835 9007491 CLUB MED 2 FNIR WALLIS E FUTUNA 187.0 14983.0 TERMINAL DE CRUZEIROS 5.2 5.2 LISBOA CAEN PINTO BASTO IV-SERVICOS MARITIMOS, LDA. CRUZEIROS
2022/04/15 07:00 ESC202001850 001853 9753208 MEIN SCHIFF 6 9HA4330 MALTA 295.25 98811.0 TERMINAL DE CRUZEIROS 8.0 8.0 LISBOA LA CORUÑA UNIVERSAL MARITIMA, LDA CRUZEIROS
2022/04/16 08:00 ESC202002595 002601 9189421 CELEBRITY INFINITY 9HJD9 MALTA 294.0 90940.0 TERMINAL DE CRUZEIROS 7.0 7.0 LISBOA SEVILLA UNIVERSAL MARITIMA, LDA CRUZEIROS
2022/04/16 11:00 ESC201901892 001909 7304314 ALBATROS C6CN4 ILHAS BAAMAS 205.46 28518.0 TERMINAL DE CRUZEIROS FUNCHAL, MADEIRA LA CORUÑA GARLAND NAVEGACAO CRUZEIROS
2022/04/19 08:00 ESC201901327 001338 9641730 MEIN SCHIFF 3 9HA3062 MALTA 293.2 99526.0 TERMINAL DE CRUZEIROS 8.0 8.0 LISBOA LA CORUÑA UNIVERSAL MARITIMA, LDA CRUZEIROS
2022/04/20 08:00 ESC201902393 999000 VIKING 8 VIKIN NORUEGA 228.2 47800.0 TERMINAL DE CRUZEIROS 8.0 8.0 MÁLAGA FALMOUTH JAMES RAWES-NAVEGAÇÃO, LDA NAVIO EM CONSTRUÇÃO
2022/04/20 08:00 ESC202000721 000721 9636967 AIDAPERLA IBRL ITALIA 299.95 125572.0 TERMINAL DE CRUZEIROS 8.1 8.1 FUNCHAL, MADEIRA LA CORUÑA JAMES RAWES-NAVEGAÇÃO, LDA CRUZEIROS
2022/04/21 08:00 ESC202001473 9007491 CLUB MED 2 FNIR WALLIS E FUTUNA 187.0 14983.0 TERMINAL DE CRUZEIROS 6.2 6.2 TARRAGONA BAYONNE PINTO BASTO IV-SERVICOS MARITIMOS, LDA. CRUZEIROS
2022/04/24 09:00 ESC201902380 002406 9451094 CELEBRITY SILHOUETTE 9HA2583 MALTA 315.0 122210.0 TERMINAL DE CRUZEIROS 8.6 8.6 VIGO LA CORUÑA UNIVERSAL MARITIMA, LDA CRUZEIROS
2022/04/25 09:00 ESC202000219 000219 9192179 SILVER WHISPER C6FN7 ILHAS BAAMAS 186.0 28258.0 TERMINAL DE CRUZEIROS 6.0 6.0 LISBOA LA CORUÑA UNIVERSAL MARITIMA, LDA CRUZEIROS
2022/04/25 12:00 ESC202001143 001149 7304314 ALBATROS C6CN4 ILHAS BAAMAS 205.46 28518.0 TERMINAL DE CRUZEIROS LA CORUÑA CASABLANCA GARLAND NAVEGACAO CRUZEIROS
2022/04/29 08:00 ESC201901329 001340 9678408 MEIN SCHIFF 4 9HA3513 MALTA 293.6 99526.0 TERMINAL DE CRUZEIROS 8.0 8.0 LISBOA LA CORUÑA UNIVERSAL MARITIMA, LDA CRUZEIROS
2022/04/30 08:00 ESC202002223 002227 9333175 VENTURA ZCDT2 BERMUDAS 288.61 116017.0 TERMINAL DE CRUZEIROS 8.1 8.1 LISBOA CHERBOURG JAMES RAWES-NAVEGAÇÃO, LDA CRUZEIROS
2022/05/02 08:00 ESC201902392 002417 9650418 VIKING STAR LAIW6 NORUEGA 228.3 47842.0 TERMINAL DE CRUZEIROS 8.0 8.0 MÁLAGA FALMOUTH JAMES RAWES-NAVEGAÇÃO, LDA CRUZEIROS
2022/05/02 08:00 ESC202001632 001637 8802882 HEBRIDEAN SKY C6BG2 ILHAS BAAMAS 90.36 4200.0 DOCA 1 NORTE - PASSAGEIROS 7.0 7.0 LISBOA LA CORUÑA JAMES RAWES-NAVEGAÇÃO, LDA CRUZEIROS
2022/05/06 08:00 ESC201901891 001908 9387073 MSC POESIA 3EPL4 PANAMA 293.8 92627.0 TERMINAL DE CRUZEIROS LISBOA FERROL MEDITERRANEAN SHIPPING CO. CRUZEIROS
2022/05/06 09:00 ESC202001041 001047 8802868 SEA SPIRIT C6PJ8 ILHAS BAAMAS 90.36 4200.0 DOCA 1 NORTE - PASSAGEIROS 4.9 4.9 LISBOA LA CORUÑA WILHELMSEN SHIPS SERVICE PORTUGAL, S.A. CRUZEIROS
2022/05/07 08:00 ESC202001883 001887 9838618 SILVER MOON ITP0223 ITALIA 212.8 41000.0 TERMINAL DE CRUZEIROS 8.0 8.0 UNKOWN LOCATION UNKOWN LOCATION UNIVERSAL MARITIMA, LDA CRUZEIROS
2022/05/07 09:00 ESC201902779 002810 9479852 COSTA FAVOLOSA ICPK ITALIA 289.65 113216.0 TERMINAL DE CRUZEIROS 8.2 8.2 LISBOA LA CORUÑA JAMES RAWES-NAVEGAÇÃO, LDA CRUZEIROS
2022/05/08 08:00 ESC201902789 002820 9783564 MEIN SCHIFF 1 9HA4683 MALTA 315.7 111554.0 TERMINAL DE CRUZEIROS 6.0 6.0 LISBOA LA CORUÑA UNIVERSAL MARITIMA, LDA CRUZEIROS
2022/05/10 08:00 ESC202002626 002634 9838383 CELEBRITY APEX 9HA4960 MALTA 306.0 129500.0 TERMINAL DE CRUZEIROS 7.0 7.0 LISBOA LE HAVRE UNIVERSAL MARITIMA, LDA CRUZEIROS
2022/05/14 08:00 ESC202001366 001373 9807085 SEVEN SEAS SPLENDOR 00000 ILHAS MARSHALL 223.0 54000.0 TERMINAL DE CRUZEIROS 7.0 7.0 LISBOA FERROL UNIVERSAL MARITIMA, LDA CRUZEIROS
2022/05/14 08:00 ESC202002449 002453 8919245 VASCO DA GAMA C6EG8 ILHAS BAAMAS 219.3 55877.0 TERMINAL DE CRUZEIROS 6.0 6.0 LISBOA LA CORUÑA NAVEX - EMP. PORT. DE NAVEGACAO CRUZEIROS
2022/05/19 08:00 ESC202001482 001488 7018563 PACIFIC PRINCESS GBCF REINO UNIDO 168.74 20186.0 DOCA 1 NORTE - PASSAGEIROS 7.0 7.0 LISBOA LA CORUÑA JAMES RAWES-NAVEGAÇÃO, LDA CRUZEIROS
2022/05/27 07:00 ESC202001415 001421 9187899 SIRENA V7RX6 ILHAS MARSHALL 181.0 30277.0 DOCA 1 NORTE - PASSAGEIROS 7.0 7.0 LISBOA LA CORUÑA UNIVERSAL MARITIMA, LDA CRUZEIROS
2022/05/27 08:00 ESC202001986 001989 9223954 CARNIVAL PRIDE H3VU PANAMA 292.5 86071.0 TERMINAL DE CRUZEIROS 8.1 8.1 LA CORUÑA LISBOA JAMES RAWES-NAVEGAÇÃO, LDA CRUZEIROS
2022/05/28 08:00 ESC202002225 002229 9333175 VENTURA ZCDT2 BERMUDAS 288.61 116017.0 TERMINAL DE CRUZEIROS 8.1 8.1 LISBOA ST PETER PORT JAMES RAWES-NAVEGAÇÃO, LDA CRUZEIROS
2022/05/30 08:00 ESC202001401 001407 9438066 MARINA V7SK2 ILHAS MARSHALL 239.3 66084.0 TERMINAL DE CRUZEIROS 7.0 7.0 LISBOA LA CORUÑA UNIVERSAL MARITIMA, LDA CRUZEIROS
2022/06/02 08:00 ESC202001483 001489 7018563 PACIFIC PRINCESS GBCF REINO UNIDO 168.74 20186.0 DOCA 1 NORTE - PASSAGEIROS 7.0 7.0 LISBOA LA CORUÑA JAMES RAWES-NAVEGAÇÃO, LDA CRUZEIROS
2022/06/02 08:00 ESC202001630 9833187 VIKING MARS VIKMRS NORUEGA 228.26 47800.0 TERMINAL DE CRUZEIROS 8.1 8.1 LISBOA LA CORUÑA JAMES RAWES-NAVEGAÇÃO, LDA NAVIO EM CONSTRUÇÃO
2022/06/07 07:00 ESC202000270 9910000 VENTURE TWO VENTT PAISES BAIXOS 290.0 100000.0 TERMINAL DE CRUZEIROS 8.1 8.1 LISBOA LA CORUÑA JAMES RAWES-NAVEGAÇÃO, LDA NAVIO EM CONSTRUÇÃO
2022/06/12 08:00 ESC201900017 000017 8903923 SILVER CLOUD C6MQ5 ILHAS BAAMAS 155.81 17014.0 DOCA 1 NORTE - PASSAGEIROS 7.0 7.0 LISBOA PORTIMAO UNIVERSAL MARITIMA, LDA CRUZEIROS
2022/06/14 07:00 ESC201901247 9880673 OCEAN ODYSSEY . ILHAS BAAMAS 104.4 7892.0 DOCA 1 NORTE - PASSAGEIROS 4.4 4.4 LISBOA VIGO PORTMAR NAVIO EM CONSTRUÇÃO
2022/06/15 08:00 ESC201901713 001728 9156462 INSIGNIA V7DM2 ILHAS MARSHALL 181.0 30277.0 TERMINAL DE CRUZEIROS 6.0 6.0 LISBOA LA CORUÑA UNIVERSAL MARITIMA, LDA CRUZEIROS
2022/06/19 11:00 ESC202000390 000389 9797371 SCENIC ECLIPSE ? MALTA 165.7 22498.0 TERMINAL DE CRUZEIROS 6.0 6.0 LISBOA VIGO MARMEDSA - AGENCIA MARITIMA, LDA CRUZEIROS
2022/06/20 07:00 ESC202000296 000295 9210218 AZAMARA QUEST 9HOM8 MALTA 181.0 30277.0 DOCA 1 NORTE - PASSAGEIROS 5.0 5.0 LISBOA ST PETER PORT UNIVERSAL MARITIMA, LDA CRUZEIROS
2022/06/22 08:00 ESC202000422 000421 9333175 VENTURA ZCDT2 BERMUDAS 288.61 116017.0 TERMINAL DE CRUZEIROS 8.1 8.1 LISBOA ST PETER PORT JAMES RAWES-NAVEGAÇÃO, LDA CRUZEIROS
2022/07/02 08:00 ESC202002226 002230 9333175 VENTURA ZCDT2 BERMUDAS 288.61 116017.0 TERMINAL DE CRUZEIROS 8.1 8.1 LISBOA ST PETER PORT JAMES RAWES-NAVEGAÇÃO, LDA CRUZEIROS
2022/07/08 07:00 ESC201901394 001406 9066667 CRYSTAL SYMPHONY C6MY5 ILHAS BAAMAS 238.01 51044.0 TERMINAL DE CRUZEIROS 8.0 8.0 LISBOA FERROL PINTO BASTO IV-SERVICOS MARITIMOS, LDA. CRUZEIROS
2022/07/12 08:00 ESC202000419 000418 9333175 VENTURA ZCDT2 BERMUDAS 288.61 116017.0 TERMINAL DE CRUZEIROS 8.1 8.1 ST PETER PORT LISBOA JAMES RAWES-NAVEGAÇÃO, LDA CRUZEIROS
2022/07/26 07:00 ESC202002470 002476 9333175 VENTURA ZCDT2 BERMUDAS 288.61 116017.0 TERMINAL DE CRUZEIROS 8.1 8.1 CARTAGENA LA CORUÑA JAMES RAWES-NAVEGAÇÃO, LDA CRUZEIROS
2022/07/27 08:00 ESC202001362 001369 9451094 CELEBRITY SILHOUETTE 9HA2583 MALTA 315.0 122210.0 TERMINAL DE CRUZEIROS 8.0 8.0 LISBOA LA CORUÑA UNIVERSAL MARITIMA, LDA CRUZEIROS
2022/07/27 08:00 ESC202002588 002594 9483126 SEABOURN QUEST C6YZ5 ILHAS BAAMAS 198.19 32477.0 DOCA 1 NORTE - PASSAGEIROS 7.6 7.6 LISBOA LA CORUÑA JAMES RAWES-NAVEGAÇÃO, LDA CRUZEIROS
2022/08/02 08:00 ESC202002227 002231 9333175 VENTURA ZCDT2 BERMUDAS 288.61 116017.0 TERMINAL DE CRUZEIROS 8.1 8.1 ST PETER PORT LISBOA JAMES RAWES-NAVEGAÇÃO, LDA CRUZEIROS
2022/08/03 08:00 ESC202002574 002580 9223954 CARNIVAL PRIDE H3VU PANAMA 292.5 86071.0 TERMINAL DE CRUZEIROS 8.1 8.1 LA CORUÑA LISBOA JAMES RAWES-NAVEGAÇÃO, LDA CRUZEIROS
2022/08/05 08:00 ESC202002483 002489 9320556 QUEEN VICTORIA ZCEF3 BERMUDAS 294.0 90049.0 TERMINAL DE CRUZEIROS 8.1 8.1 LA CORUÑA LISBOA JAMES RAWES-NAVEGAÇÃO, LDA CRUZEIROS
2022/08/07 08:00 ESC202001848 001851 9678408 MEIN SCHIFF 4 9HA3513 MALTA 293.6 99526.0 TERMINAL DE CRUZEIROS 8.0 8.0 LA CORUÑA LISBOA UNIVERSAL MARITIMA, LDA CRUZEIROS
2022/08/13 08:00 ESC202002159 002164 9850460 SCENIC ECLIPSE 2 0 MALTA 165.7 22498.0 DOCA 1 NORTE - PASSAGEIROS 5.3 5.3 LISBOA VIGO MARMEDSA - AGENCIA MARITIMA, LDA CRUZEIROS
2022/08/17 07:00 ESC202002228 002232 9333175 VENTURA ZCDT2 BERMUDAS 288.61 116017.0 TERMINAL DE CRUZEIROS 8.1 8.1 LISBOA ST PETER PORT JAMES RAWES-NAVEGAÇÃO, LDA CRUZEIROS
2022/08/20 08:00 ESC202001365 001372 9064126 SEVEN SEAS NAVIGATOR C6ZI9 ILHAS BAAMAS 170.69 28803.0 TERMINAL DE CRUZEIROS 7.0 7.0 FERROL LISBOA UNIVERSAL MARITIMA, LDA CRUZEIROS
2022/08/27 07:00 ESC202000538 000538 9189421 CELEBRITY INFINITY 9HJD9 MALTA 294.0 90940.0 TERMINAL DE CRUZEIROS 6.0 6.0 LA CORUÑA LISBOA UNIVERSAL MARITIMA, LDA CRUZEIROS
2022/08/31 07:00 ESC202000539 000539 9189421 CELEBRITY INFINITY 9HJD9 MALTA 294.0 90940.0 TERMINAL DE CRUZEIROS 6.0 6.0 LISBOA CADIZ UNIVERSAL MARITIMA, LDA CRUZEIROS
2022/09/01 06:00 ESC202001403 001409 9156462 INSIGNIA V7DM2 ILHAS MARSHALL 181.0 30277.0 TERMINAL DE CRUZEIROS 7.0 7.0 FERROL LISBOA UNIVERSAL MARITIMA, LDA CRUZEIROS
2022/09/02 08:00 ESC202000412 000411 9226906 ARCADIA ZCDN2 BERMUDAS 285.11 83781.0 TERMINAL DE CRUZEIROS 8.1 8.1 ST PETER PORT LISBOA JAMES RAWES-NAVEGAÇÃO, LDA CRUZEIROS
2022/09/03 08:00 ESC202002484 002490 9156515 VOLENDAM PCHM PAISES BAIXOS 237.91 61214.0 TERMINAL DE CRUZEIROS 8.1 8.1 LA CORUÑA LISBOA JAMES RAWES-NAVEGAÇÃO, LDA CRUZEIROS
2022/09/04 07:00 ESC201901248 9880673 OCEAN ODYSSEY . ILHAS BAAMAS 104.4 7892.0 DOCA 1 NORTE - PASSAGEIROS 4.4 4.4 VILLAGARCÍA (DE AROUSA) LISBOA PORTMAR NAVIO EM CONSTRUÇÃO
2022/09/05 07:00 ESC202002054 002058 8903923 SILVER CLOUD C6MQ5 ILHAS BAAMAS 155.81 17014.0 DOCA 1 NORTE - PASSAGEIROS 6.0 6.0 UNKOWN LOCATION UNKOWN LOCATION UNIVERSAL MARITIMA, LDA CRUZEIROS
2022/09/06 07:30 ESC202001987 001990 9223954 CARNIVAL PRIDE H3VU PANAMA 292.5 86071.0 TERMINAL DE CRUZEIROS 8.1 8.1 LA CORUÑA LISBOA JAMES RAWES-NAVEGAÇÃO, LDA CRUZEIROS
2022/09/07 08:00 ESC202000298 000297 9210218 AZAMARA QUEST 9HOM8 MALTA 181.0 30277.0 DOCA 1 NORTE - PASSAGEIROS 6.0 6.0 LA CORUÑA LISBOA UNIVERSAL MARITIMA, LDA CRUZEIROS
2022/09/10 08:00 ESC202002229 002233 9333175 VENTURA ZCDT2 BERMUDAS 288.61 116017.0 TERMINAL DE CRUZEIROS 8.1 8.1 LISBOA ST PETER PORT JAMES RAWES-NAVEGAÇÃO, LDA CRUZEIROS
2022/09/13 06:00 ESC202001414 001420 9247144 SEVEN SEAS VOYAGER C6SW3 ILHAS BAAMAS 206.5 42363.0 TERMINAL DE CRUZEIROS 7.0 7.0 VILLAGARCÍA (DE AROUSA) LISBOA UNIVERSAL MARITIMA, LDA CRUZEIROS
2022/09/16 09:00 ESC202000361 000360 9219331 THE WORLD C6RW4 ILHAS BAAMAS 196.35 43188.0 DOCA 1 NORTE - PASSAGEIROS 6.9 6.9 COBH TANGER MED WILHELMSEN SHIPS SERVICE PORTUGAL, S.A. CRUZEIROS
2022/09/17 08:00 ESC202002592 002598 9838383 CELEBRITY APEX 9HA4960 MALTA 306.0 129500.0 TERMINAL DE CRUZEIROS 7.0 7.0 LA CORUÑA LISBOA UNIVERSAL MARITIMA, LDA CRUZEIROS
2022/09/18 07:00 ESC201901395 001407 9066667 CRYSTAL SYMPHONY C6MY5 ILHAS BAAMAS 238.01 51044.0 TERMINAL DE CRUZEIROS 8.0 8.0 LA CORUÑA LISBOA PINTO BASTO IV-SERVICOS MARITIMOS, LDA. CRUZEIROS
2022/09/25 06:00 ESC202001034 001040 8201480 ARTANIA C6CY5 ILHAS BAAMAS 230.61 44656.0 DOCA 1 NORTE - PASSAGEIROS VIGO PRAIA DA VITÓRIA GARLAND NAVEGACAO CRUZEIROS
2022/09/27 10:00 ESC202002530 002535 9387073 MSC POESIA 3EPL4 PANAMA 293.8 92627.0 TERMINAL DE CRUZEIROS FERROL LISBOA MEDITERRANEAN SHIPPING CO. CRUZEIROS
2022/09/28 07:00 ESC202002596 002602 9451094 CELEBRITY SILHOUETTE 9HA2583 MALTA 315.0 122210.0 TERMINAL DE CRUZEIROS 7.0 7.0 LISBOA SOUTHAMPTON UNIVERSAL MARITIMA, LDA CRUZEIROS
2022/09/29 08:00 ESC202001673 001678 9479864 COSTA FASCINOSA ICPO ITALIA 289.58 113321.0 TERMINAL DE CRUZEIROS 8.1 8.1 LA CORUÑA LISBOA JAMES RAWES-NAVEGAÇÃO, LDA CRUZEIROS
2022/10/03 07:00 ESC202001886 001890 9838618 SILVER MOON ITP0223 ITALIA 212.8 41000.0 TERMINAL DE CRUZEIROS 7.0 7.0 UNKOWN LOCATION UNKOWN LOCATION UNIVERSAL MARITIMA, LDA CRUZEIROS
2022/10/03 08:00 ESC201902263 002287 9796262 VIKING JUPITER LAYP7 NORUEGA 228.26 47861.0 TERMINAL DE CRUZEIROS 8.0 8.0 FALMOUTH MÁLAGA JAMES RAWES-NAVEGAÇÃO, LDA CRUZEIROS
2022/10/04 08:00 ESC202000416 000415 9333175 VENTURA ZCDT2 BERMUDAS 288.61 116017.0 TERMINAL DE CRUZEIROS 8.1 8.1 CHERBOURG LISBOA JAMES RAWES-NAVEGAÇÃO, LDA CRUZEIROS
2022/10/06 07:00 ESC202001369 001376 9807085 SEVEN SEAS SPLENDOR 00000 ILHAS MARSHALL 223.0 54000.0 DOCA 1 NORTE - PASSAGEIROS 7.0 7.0 LA CORUÑA LISBOA UNIVERSAL MARITIMA, LDA CRUZEIROS
2022/10/08 08:00 ESC202000545 000545 9189421 CELEBRITY INFINITY 9HJD9 MALTA 294.0 90940.0 TERMINAL DE CRUZEIROS 7.0 7.0 SEVILLA LISBOA UNIVERSAL MARITIMA, LDA CRUZEIROS
2022/10/09 08:00 ESC202002572 002578 9764958 SEABOURN OVATION C6CV5 ILHAS BAAMAS 210.3 41865.0 TERMINAL DE CRUZEIROS 8.0 8.0 LA CORUÑA LISBOA JAMES RAWES-NAVEGAÇÃO, LDA CRUZEIROS
2022/10/10 06:00 ESC202001402 001408 9438066 MARINA V7SK2 ILHAS MARSHALL 239.3 66084.0 DOCA 1 NORTE - PASSAGEIROS 7.0 7.0 VILLAGARCÍA (DE AROUSA) LISBOA UNIVERSAL MARITIMA, LDA CRUZEIROS
2022/10/12 08:00 ESC202000547 000547 9189421 CELEBRITY INFINITY 9HJD9 MALTA 294.0 90940.0 TERMINAL DE CRUZEIROS 7.0 7.0 LISBOA SEVILLA UNIVERSAL MARITIMA, LDA CRUZEIROS
2022/10/15 08:00 ESC202002230 002234 9333175 VENTURA ZCDT2 BERMUDAS 288.61 116017.0 TERMINAL DE CRUZEIROS 8.1 8.1 LISBOA CHERBOURG JAMES RAWES-NAVEGAÇÃO, LDA CRUZEIROS
2022/10/16 08:00 ESC202001629 9833175 VIKING SEVEN VKSVN NORUEGA 228.2 47800.0 TERMINAL DE CRUZEIROS 8.1 8.1 LISBOA LA CORUÑA JAMES RAWES-NAVEGAÇÃO, LDA NAVIO EM CONSTRUÇÃO
2022/10/18 07:00 ESC202001363 001370 9451094 CELEBRITY SILHOUETTE 9HA2583 MALTA 315.0 122210.0 TERMINAL DE CRUZEIROS 8.0 8.0 LISBOA SOUTHAMPTON UNIVERSAL MARITIMA, LDA CRUZEIROS
2022/10/18 08:00 ESC202000718 000718 9195169 NORWEGIAN DAWN C6FT7 ILHAS BAAMAS 294.13 92250.0 TERMINAL DE CRUZEIROS 7.0 7.0 LA CORUÑA LISBOA UNIVERSAL MARITIMA, LDA CRUZEIROS
2022/10/22 06:00 ESC202001416 001422 9187899 SIRENA V7RX6 ILHAS MARSHALL 181.0 30277.0 DOCA 1 NORTE - PASSAGEIROS 7.0 7.0 VILLAGARCÍA (DE AROUSA) PORTIMAO UNIVERSAL MARITIMA, LDA CRUZEIROS
2022/10/23 08:00 ESC202002362 002366 9678408 MEIN SCHIFF 4 9HA3513 MALTA 293.6 99526.0 TERMINAL DE CRUZEIROS 7.0 7.0 LA CORUÑA LISBOA UNIVERSAL MARITIMA, LDA CRUZEIROS
2022/10/24 07:00 ESC202001849 001852 9753208 MEIN SCHIFF 6 9HA4330 MALTA 295.25 98811.0 TERMINAL DE CRUZEIROS 8.0 8.0 VIGO LISBOA UNIVERSAL MARITIMA, LDA CRUZEIROS
2022/10/25 08:00 ESC202000420 000419 9333175 VENTURA ZCDT2 BERMUDAS 288.61 116017.0 TERMINAL DE CRUZEIROS 8.1 8.1 CHERBOURG LISBOA JAMES RAWES-NAVEGAÇÃO, LDA CRUZEIROS
2022/10/25 11:00 ESC202002378 002383 8700280 AMERA C6EA7 ILHAS BAAMAS 204.0 38848.0 DOCA 1 NORTE - PASSAGEIROS LA CORUÑA LISBOA GARLAND NAVEGACAO CRUZEIROS
2022/10/27 08:00 ESC202002628 002636 9189421 CELEBRITY INFINITY 9HJD9 MALTA 294.0 90940.0 TERMINAL DE CRUZEIROS 7.0 7.0 SEVILLA LISBOA UNIVERSAL MARITIMA, LDA CRUZEIROS
2022/10/30 12:00 ESC202000820 000821 8913162 AMADEA C6VE9 ILHAS BAAMAS 190.0 29008.0 DOCA 1 NORTE - PASSAGEIROS LA CORUÑA LISBOA GARLAND NAVEGACAO CRUZEIROS
2022/10/31 08:00 ESC202002629 002637 9189421 CELEBRITY INFINITY 9HJD9 MALTA 294.0 90940.0 TERMINAL DE CRUZEIROS 7.0 7.0 LISBOA SEVILLA UNIVERSAL MARITIMA, LDA CRUZEIROS
2022/11/01 08:00 ESC202000417 000416 9333175 VENTURA ZCDT2 BERMUDAS 288.61 116017.0 TERMINAL DE CRUZEIROS 8.1 8.1 LA CORUÑA CADIZ JAMES RAWES-NAVEGAÇÃO, LDA CRUZEIROS
2022/11/05 08:00 ESC202002450 002455 8919245 VASCO DA GAMA C6EG8 ILHAS BAAMAS 219.3 55877.0 TERMINAL DE CRUZEIROS 6.0 6.0 LA CORUÑA LISBOA NAVEX - EMP. PORT. DE NAVEGACAO CRUZEIROS
2022/11/14 11:00 ESC202002379 002384 8700280 AMERA C6EA7 ILHAS BAAMAS 204.0 38848.0 DOCA 1 NORTE - PASSAGEIROS LA CORUÑA LISBOA GARLAND NAVEGACAO CRUZEIROS
2022/11/28 08:00 ESC202002630 002638 9189421 CELEBRITY INFINITY 9HJD9 MALTA 294.0 90940.0 TERMINAL DE CRUZEIROS 7.0 7.0 SEVILLA LISBOA UNIVERSAL MARITIMA, LDA CRUZEIROS
2022/12/16 11:00 ESC202002441 002445 8700280 AMERA C6EA7 ILHAS BAAMAS 204.0 38848.0 TERMINAL DE CRUZEIROS HAMBURG LISBOA GARLAND NAVEGACAO CRUZEIROS
2023/01/04 08:00 ESC202001956 001959 9802683 SPIRIT OF DISCOVERY MEYE7 REINO UNIDO 236.0 58119.0 TERMINAL DE CRUZEIROS 8.1 8.1 LISBOA LA CORUÑA JAMES RAWES-NAVEGAÇÃO, LDA CRUZEIROS
2023/04/08 08:00 ESC202001627 001635 9796262 VIKING JUPITER LAYP7 NORUEGA 228.26 47861.0 TERMINAL DE CRUZEIROS 8.0 8.0 LISBOA LA CORUÑA JAMES RAWES-NAVEGAÇÃO, LDA CRUZEIROS
2023/04/09 08:00 ESC202000069 000070 9490052 AIDAMAR ICSJ ITALIA 253.22 71304.0 TERMINAL DE CRUZEIROS 8.1 8.1 LISBOA LA CORUÑA JAMES RAWES-NAVEGAÇÃO, LDA CRUZEIROS
2023/04/14 08:00 ESC202002275 002281 9641730 MEIN SCHIFF 3 9HA3062 MALTA 293.2 99526.0 TERMINAL DE CRUZEIROS 6.0 6.0 LISBOA LA CORUÑA UNIVERSAL MARITIMA, LDA CRUZEIROS
2023/04/16 08:00 ESC202002288 002294 9783564 MEIN SCHIFF 1 9HA4683 MALTA 315.7 111554.0 TERMINAL DE CRUZEIROS 8.0 8.0 LISBOA LA CORUÑA UNIVERSAL MARITIMA, LDA CRUZEIROS
2023/04/21 07:00 ESC202001620 001627 8700280 AMERA C6EA7 ILHAS BAAMAS 204.0 38848.0 TERMINAL DE CRUZEIROS PONTA DELGADA FERROL GARLAND NAVEGACAO CRUZEIROS
2023/04/23 08:00 ESC202001631 9833187 VIKING MARS VIKMRS NORUEGA 228.26 47800.0 TERMINAL DE CRUZEIROS 8.1 8.1 LISBOA LA CORUÑA JAMES RAWES-NAVEGAÇÃO, LDA NAVIO EM CONSTRUÇÃO
2023/05/10 08:00 ESC202000019 000019 9479852 COSTA FAVOLOSA ICPK ITALIA 289.65 113216.0 TERMINAL DE CRUZEIROS 8.1 8.1 LA CORUÑA LISBOA JAMES RAWES-NAVEGAÇÃO, LDA CRUZEIROS
2023/06/09 08:00 ESC202002160 002165 9850460 SCENIC ECLIPSE 2 0 MALTA 165.7 22498.0 DOCA 1 NORTE - PASSAGEIROS 5.3 5.3 LISBOA VIGO MARMEDSA - AGENCIA MARITIMA, LDA CRUZEIROS
2023/08/16 09:00 ESC202002289 002295 9783564 MEIN SCHIFF 1 9HA4683 MALTA 315.7 111554.0 TERMINAL DE CRUZEIROS 8.0 8.0 LA CORUÑA LISBOA UNIVERSAL MARITIMA, LDA CRUZEIROS
2023/08/30 07:00 ESC202000549 000549 9451094 CELEBRITY SILHOUETTE 9HA2583 MALTA 315.0 122210.0 TERMINAL DE CRUZEIROS UNKOWN LOCATION UNKOWN LOCATION UNIVERSAL MARITIMA, LDA CRUZEIROS
2023/09/02 07:00 ESC202000601 000599 9228356 JEWEL OF THE SEAS C6FW9 ILHAS BAAMAS 293.0 90090.0 TERMINAL DE CRUZEIROS UNKOWN LOCATION UNKOWN LOCATION UNIVERSAL MARITIMA, LDA CRUZEIROS
2023/09/04 07:00 ESC201901097 001109 9189421 CELEBRITY INFINITY 9HJD9 MALTA 294.0 90940.0 TERMINAL DE CRUZEIROS 8.0 8.0 LA CORUÑA LISBOA UNIVERSAL MARITIMA, LDA CRUZEIROS
2023/09/08 07:00 ESC201901099 001111 9189421 CELEBRITY INFINITY 9HJD9 MALTA 294.0 90940.0 TERMINAL DE CRUZEIROS 8.0 8.0 LISBOA LA CORUÑA UNIVERSAL MARITIMA, LDA CRUZEIROS
2023/09/20 08:00 ESC202002094 002097 9797371 SCENIC ECLIPSE ? MALTA 165.7 22498.0 TERMINAL DE CRUZEIROS 5.8 5.8 LISBOA VIGO MARMEDSA - AGENCIA MARITIMA, LDA CRUZEIROS
2023/09/22 07:00 ESC202000602 000600 9228356 JEWEL OF THE SEAS C6FW9 ILHAS BAAMAS 293.0 90090.0 TERMINAL DE CRUZEIROS UNKOWN LOCATION UNKOWN LOCATION UNIVERSAL MARITIMA, LDA CRUZEIROS
2023/09/24 07:00 ESC201901100 001112 9189421 CELEBRITY INFINITY 9HJD9 MALTA 294.0 90940.0 TERMINAL DE CRUZEIROS 8.0 8.0 LA CORUÑA LISBOA UNIVERSAL MARITIMA, LDA CRUZEIROS
2023/09/28 07:00 ESC201901101 001113 9189421 CELEBRITY INFINITY 9HJD9 MALTA 294.0 90940.0 TERMINAL DE CRUZEIROS 8.0 8.0 LISBOA LA CORUÑA UNIVERSAL MARITIMA, LDA CRUZEIROS
2023/10/04 07:00 ESC202000768 000769 9812705 CELEBRITY EDGE 9HA4612 MALTA 306.0 129500.0 TERMINAL DE CRUZEIROS UNKOWN LOCATION UNKOWN LOCATION UNIVERSAL MARITIMA, LDA CRUZEIROS
2023/10/09 08:00 ESC202001628 001636 9796262 VIKING JUPITER LAYP7 NORUEGA 228.26 47861.0 TERMINAL DE CRUZEIROS 8.1 8.1 LISBOA LA CORUÑA JAMES RAWES-NAVEGAÇÃO, LDA CRUZEIROS
2023/10/09 08:00 ESC202002290 002296 9783564 MEIN SCHIFF 1 9HA4683 MALTA 315.7 111554.0 TERMINAL DE CRUZEIROS 8.0 8.0 LA CORUÑA LISBOA UNIVERSAL MARITIMA, LDA CRUZEIROS
2023/10/14 07:00 ESC201901102 001114 9189421 CELEBRITY INFINITY 9HJD9 MALTA 294.0 90940.0 TERMINAL DE CRUZEIROS 8.0 8.0 LA CORUÑA LISBOA UNIVERSAL MARITIMA, LDA CRUZEIROS
2023/10/15 07:00 ESC202000769 000770 9812705 CELEBRITY EDGE 9HA4612 MALTA 306.0 129500.0 TERMINAL DE CRUZEIROS UNKOWN LOCATION UNKOWN LOCATION UNIVERSAL MARITIMA, LDA CRUZEIROS
2023/10/18 07:00 ESC201901103 001115 9189421 CELEBRITY INFINITY 9HJD9 MALTA 294.0 90940.0 TERMINAL DE CRUZEIROS LISBOA LA CORUÑA UNIVERSAL MARITIMA, LDA CRUZEIROS
2023/10/31 08:00 ESC202002340 3321559 LEONARDO 1 MMRS1 ILHAS BAAMAS 294.0 145000.0 TERMINAL DE CRUZEIROS 8.0 8.0 COBH LISBOA UNIVERSAL MARITIMA, LDA NAVIO EM CONSTRUÇÃO
2024/08/28 07:00 ESC202000773 000774 9451094 CELEBRITY SILHOUETTE 9HA2583 MALTA 315.0 122210.0 TERMINAL DE CRUZEIROS UNKOWN LOCATION UNKOWN LOCATION UNIVERSAL MARITIMA, LDA CRUZEIROS
2024/08/30 07:00 ESC202000774 000775 9189421 CELEBRITY INFINITY 9HJD9 MALTA 294.0 90940.0 TERMINAL DE CRUZEIROS UNKOWN LOCATION UNKOWN LOCATION UNIVERSAL MARITIMA, LDA CRUZEIROS
2024/09/03 07:00 ESC202000775 000776 9189421 CELEBRITY INFINITY 9HJD9 MALTA 294.0 90940.0 TERMINAL DE CRUZEIROS UNKOWN LOCATION UNKOWN LOCATION UNIVERSAL MARITIMA, LDA CRUZEIROS
2024/09/19 07:00 ESC202000782 000783 9189421 CELEBRITY INFINITY 9HJD9 MALTA 294.0 90940.0 TERMINAL DE CRUZEIROS UNKOWN LOCATION UNKOWN LOCATION UNIVERSAL MARITIMA, LDA CRUZEIROS
2024/09/23 07:00 ESC202000783 000784 9189421 CELEBRITY INFINITY 9HJD9 MALTA 294.0 90940.0 TERMINAL DE CRUZEIROS UNKOWN LOCATION UNKOWN LOCATION UNIVERSAL MARITIMA, LDA CRUZEIROS
2024/10/13 07:00 ESC202000784 000785 9189421 CELEBRITY INFINITY 9HJD9 MALTA 294.0 90940.0 TERMINAL DE CRUZEIROS UNKOWN LOCATION UNKOWN LOCATION UNIVERSAL MARITIMA, LDA CRUZEIROS
2024/10/20 07:00 ESC202000785 000786 9812705 CELEBRITY EDGE 9HA4612 MALTA 306.0 129500.0 TERMINAL DE CRUZEIROS UNKOWN LOCATION UNKOWN LOCATION UNIVERSAL MARITIMA, LDA CRUZEIROS
2024/10/30 07:00 ESC202000786 000787 9812705 CELEBRITY EDGE 9HA4612 MALTA 306.0 129500.0 TERMINAL DE CRUZEIROS UNKOWN LOCATION UNKOWN LOCATION UNIVERSAL MARITIMA, LDA CRUZEIROS
2025/08/27 07:00 ESC202000798 000799 9451094 CELEBRITY SILHOUETTE 9HA2583 MALTA 315.0 122210.0 TERMINAL DE CRUZEIROS UNKOWN LOCATION UNKOWN LOCATION UNIVERSAL MARITIMA, LDA CRUZEIROS
2025/08/29 07:00 ESC202000799 000800 9189421 CELEBRITY INFINITY 9HJD9 MALTA 294.0 90940.0 TERMINAL DE CRUZEIROS UNKOWN LOCATION UNKOWN LOCATION UNIVERSAL MARITIMA, LDA CRUZEIROS
2025/09/02 07:00 ESC202000809 000810 9189421 CELEBRITY INFINITY 9HJD9 MALTA 294.0 90940.0 TERMINAL DE CRUZEIROS UNKOWN LOCATION UNKOWN LOCATION UNIVERSAL MARITIMA, LDA CRUZEIROS
2025/09/18 07:00 ESC202000810 000811 9189421 CELEBRITY INFINITY 9HJD9 MALTA 294.0 90940.0 TERMINAL DE CRUZEIROS UNKOWN LOCATION UNKOWN LOCATION UNIVERSAL MARITIMA, LDA CRUZEIROS
2025/09/22 07:00 ESC202000811 000812 9189421 CELEBRITY INFINITY 9HJD9 MALTA 294.0 90940.0 TERMINAL DE CRUZEIROS UNKOWN LOCATION UNKOWN LOCATION UNIVERSAL MARITIMA, LDA CRUZEIROS
2025/10/12 07:00 ESC202000812 000813 9189421 CELEBRITY INFINITY 9HJD9 MALTA 294.0 90940.0 TERMINAL DE CRUZEIROS UNKOWN LOCATION UNKOWN LOCATION UNIVERSAL MARITIMA, LDA CRUZEIROS
2025/10/19 07:00 ESC202000813 000814 9812705 CELEBRITY EDGE 9HA4612 MALTA 306.0 129500.0 TERMINAL DE CRUZEIROS UNKOWN LOCATION UNKOWN LOCATION UNIVERSAL MARITIMA, LDA CRUZEIROS
2026/08/28 07:00 ESC202000815 000816 9189421 CELEBRITY INFINITY 9HJD9 MALTA 294.0 90940.0 TERMINAL DE CRUZEIROS UNKOWN LOCATION UNKOWN LOCATION UNIVERSAL MARITIMA, LDA CRUZEIROS
2026/09/01 07:00 ESC202000816 000817 9189421 CELEBRITY INFINITY 9HJD9 MALTA 294.0 90940.0 TERMINAL DE CRUZEIROS UNKOWN LOCATION UNKOWN LOCATION UNIVERSAL MARITIMA, LDA CRUZEIROS
2026/09/02 07:00 ESC202000817 000818 9451094 CELEBRITY SILHOUETTE 9HA2583 MALTA 315.0 122210.0 TERMINAL DE CRUZEIROS UNKOWN LOCATION UNKOWN LOCATION UNIVERSAL MARITIMA, LDA CRUZEIROS
2026/09/17 07:00 ESC202000918 000922 9189421 CELEBRITY INFINITY 9HJD9 MALTA 294.0 90940.0 TERMINAL DE CRUZEIROS UNKOWN LOCATION UNKOWN LOCATION UNIVERSAL MARITIMA, LDA CRUZEIROS
2026/09/21 07:00 ESC202000919 000923 9189421 CELEBRITY INFINITY 9HJD9 MALTA 294.0 90940.0 TERMINAL DE CRUZEIROS UNKOWN LOCATION UNKOWN LOCATION UNIVERSAL MARITIMA, LDA CRUZEIROS
2026/10/11 07:00 ESC202000920 000924 9189421 CELEBRITY INFINITY 9HJD9 MALTA 294.0 90940.0 TERMINAL DE CRUZEIROS UNKOWN LOCATION UNKOWN LOCATION UNIVERSAL MARITIMA, LDA CRUZEIROS
2026/10/18 07:00 ESC202000921 000925 9812705 CELEBRITY EDGE 9HA4612 MALTA 306.0 129500.0 TERMINAL DE CRUZEIROS UNKOWN LOCATION UNKOWN LOCATION UNIVERSAL MARITIMA, LDA CRUZEIROS
2027/08/27 07:00 ESC202000924 000928 9189421 CELEBRITY INFINITY 9HJD9 MALTA 294.0 90940.0 TERMINAL DE CRUZEIROS UNKOWN LOCATION UNKOWN LOCATION UNIVERSAL MARITIMA, LDA CRUZEIROS
2027/08/31 07:00 ESC202000925 000929 9189421 CELEBRITY INFINITY 9HJD9 MALTA 294.0 90940.0 TERMINAL DE CRUZEIROS UNKOWN LOCATION UNKOWN LOCATION UNIVERSAL MARITIMA, LDA CRUZEIROS
2027/09/01 07:00 ESC202000926 000930 9451094 CELEBRITY SILHOUETTE 9HA2583 MALTA 315.0 122210.0 TERMINAL DE CRUZEIROS UNKOWN LOCATION UNKOWN LOCATION UNIVERSAL MARITIMA, LDA CRUZEIROS
2027/09/16 07:00 ESC202000927 000931 9189421 CELEBRITY INFINITY 9HJD9 MALTA 294.0 90940.0 TERMINAL DE CRUZEIROS UNKOWN LOCATION UNKOWN LOCATION UNIVERSAL MARITIMA, LDA CRUZEIROS
2027/09/20 07:00 ESC202000928 000932 9189421 CELEBRITY INFINITY 9HJD9 MALTA 294.0 90940.0 TERMINAL DE CRUZEIROS UNKOWN LOCATION UNKOWN LOCATION UNIVERSAL MARITIMA, LDA CRUZEIROS
2027/10/10 07:00 ESC202000929 000933 9189421 CELEBRITY INFINITY 9HJD9 MALTA 294.0 90940.0 TERMINAL DE CRUZEIROS UNKOWN LOCATION UNKOWN LOCATION UNIVERSAL MARITIMA, LDA CRUZEIROS
2027/10/17 07:00 ESC202000930 000934 9812705 CELEBRITY EDGE 9HA4612 MALTA 306.0 129500.0 TERMINAL DE CRUZEIROS UNKOWN LOCATION UNKOWN LOCATION UNIVERSAL MARITIMA, LDA CRUZEIROS
2028/08/25 07:00 ESC202001082 001088 9189421 CELEBRITY INFINITY 9HJD9 MALTA 294.0 90940.0 TERMINAL DE CRUZEIROS UNKOWN LOCATION UNKOWN LOCATION UNIVERSAL MARITIMA, LDA CRUZEIROS
2028/08/29 07:00 ESC202001083 001089 9189421 CELEBRITY INFINITY 9HJD9 MALTA 294.0 90940.0 TERMINAL DE CRUZEIROS UNKOWN LOCATION UNKOWN LOCATION UNIVERSAL MARITIMA, LDA CRUZEIROS
2028/08/30 07:00 ESC202001084 001090 9451094 CELEBRITY SILHOUETTE 9HA2583 MALTA 315.0 122210.0 TERMINAL DE CRUZEIROS UNKOWN LOCATION UNKOWN LOCATION UNIVERSAL MARITIMA, LDA CRUZEIROS
2028/09/14 07:00 ESC202001085 001091 9189421 CELEBRITY INFINITY 9HJD9 MALTA 294.0 90940.0 TERMINAL DE CRUZEIROS UNKOWN LOCATION UNKOWN LOCATION UNIVERSAL MARITIMA, LDA CRUZEIROS
2028/09/18 07:00 ESC202001086 001092 9189421 CELEBRITY INFINITY 9HJD9 MALTA 294.0 90940.0 TERMINAL DE CRUZEIROS UNKOWN LOCATION UNKOWN LOCATION UNIVERSAL MARITIMA, LDA CRUZEIROS
2028/10/08 07:00 ESC202001087 001093 9189421 CELEBRITY INFINITY 9HJD9 MALTA 294.0 90940.0 TERMINAL DE CRUZEIROS UNKOWN LOCATION UNKOWN LOCATION UNIVERSAL MARITIMA, LDA CRUZEIROS
2028/10/15 07:00 ESC202001088 001094 9812705 CELEBRITY EDGE 9HA4612 MALTA 306.0 129500.0 TERMINAL DE CRUZEIROS UNKOWN LOCATION UNKOWN LOCATION UNIVERSAL MARITIMA, LDA CRUZEIROS
2029/08/28 07:00 ESC202001089 001095 9451094 CELEBRITY SILHOUETTE 9HA2583 MALTA 315.0 122210.0 TERMINAL DE CRUZEIROS UNKOWN LOCATION UNKOWN LOCATION UNIVERSAL MARITIMA, LDA CRUZEIROS
2029/08/31 07:00 ESC202001090 001096 9189421 CELEBRITY INFINITY 9HJD9 MALTA 294.0 90940.0 TERMINAL DE CRUZEIROS UNKOWN LOCATION UNKOWN LOCATION UNIVERSAL MARITIMA, LDA CRUZEIROS
2029/09/04 07:00 ESC202001091 001097 9189421 CELEBRITY INFINITY 9HJD9 MALTA 294.0 90940.0 TERMINAL DE CRUZEIROS UNKOWN LOCATION UNKOWN LOCATION UNIVERSAL MARITIMA, LDA CRUZEIROS
2029/09/20 07:00 ESC202001092 001098 9189421 CELEBRITY INFINITY 9HJD9 MALTA 294.0 90940.0 TERMINAL DE CRUZEIROS UNKOWN LOCATION UNKOWN LOCATION UNIVERSAL MARITIMA, LDA CRUZEIROS
2029/09/24 07:00 ESC202001093 001099 9189421 CELEBRITY INFINITY 9HJD9 MALTA 294.0 90940.0 TERMINAL DE CRUZEIROS UNKOWN LOCATION UNKOWN LOCATION UNIVERSAL MARITIMA, LDA CRUZEIROS
2029/10/14 07:00 ESC202001094 001100 9189421 CELEBRITY INFINITY 9HJD9 MALTA 294.0 90940.0 TERMINAL DE CRUZEIROS UNKOWN LOCATION UNKOWN LOCATION UNIVERSAL MARITIMA, LDA CRUZEIROS
2029/10/21 07:00 ESC202001095 001101 9812705 CELEBRITY EDGE 9HA4612 MALTA 306.0 129500.0 TERMINAL DE CRUZEIROS UNKOWN LOCATION UNKOWN LOCATION UNIVERSAL MARITIMA, LDA CRUZEIROS

APDL - Administração dos Portos do Douro, Leixões e Viana do Castelo, SA